BWA902 EDDF-TTPP
Flight info
| Callsign | BWA902 |
|---|---|
| Flight time | N/A |
| Altitude | 32000 |
| Route | OBOKA3W/25C OBOKA DCT DENUT L610 GILDA L620 SAM N19 ADKIK DCT GITUS DCT RATKA/M083F320 DCT TAMEL DCT 46N017W 43N024W/M083F340 39N030W 35N036W 32N041W/M083F360 28N045W 23N049W 19N053W/N0481F380 DCT SALAB UM662 ETBIG |
| Aircraft | L101/H-SDFGHIRWXY/S |
Departure
| Time | 2026-04-19 09:41 |
|---|---|
| Airport | Frankfurt Main Airport (EDDF) |
Arrival
| Time | N/A |
|---|---|
| Airport | Piarco International Airport (TTPP) |
| Time | Latitude | Longitude | Altitude | Speed | Heading |
|---|---|---|---|---|---|
| 2026-04-19 09:05 | 50.05022 | 8.58534 | 364 ft | 0 kts | 339° |
| 2026-04-19 09:28 | 50.05009 | 8.58542 | 367 ft | 3 kts | 340° |
| 2026-04-19 09:29 | 50.04985 | 8.58556 | 364 ft | 4 kts | 340° |
| 2026-04-19 09:29 | 50.04960 | 8.58569 | 367 ft | 2 kts | 340° |
| 2026-04-19 09:29 | 50.04933 | 8.58574 | 370 ft | 4 kts | 41° |
| 2026-04-19 09:29 | 50.04920 | 8.58541 | 366 ft | 3 kts | 69° |
| 2026-04-19 09:30 | 50.04915 | 8.58520 | 364 ft | 1 kts | 69° |
| 2026-04-19 09:30 | 50.04914 | 8.58519 | 364 ft | 0 kts | 69° |
| 2026-04-19 09:37 | 50.04917 | 8.58529 | 364 ft | 2 kts | 69° |
| 2026-04-19 09:38 | 50.04925 | 8.58563 | 364 ft | 5 kts | 70° |
| 2026-04-19 09:38 | 50.04924 | 8.58628 | 364 ft | 7 kts | 111° |
| 2026-04-19 09:38 | 50.04889 | 8.58679 | 372 ft | 7 kts | 152° |
| 2026-04-19 09:38 | 50.04846 | 8.58709 | 368 ft | 7 kts | 160° |
| 2026-04-19 09:39 | 50.04802 | 8.58734 | 370 ft | 7 kts | 160° |
| 2026-04-19 09:39 | 50.04759 | 8.58758 | 372 ft | 7 kts | 160° |
| 2026-04-19 09:39 | 50.04715 | 8.58768 | 374 ft | 6 kts | 181° |
| 2026-04-19 09:39 | 50.04670 | 8.58764 | 375 ft | 7 kts | 183° |
| 2026-04-19 09:40 | 50.04615 | 8.58745 | 375 ft | 9 kts | 205° |
| 2026-04-19 09:40 | 50.04560 | 8.58684 | 376 ft | 11 kts | 220° |
| 2026-04-19 09:40 | 50.04499 | 8.58601 | 375 ft | 13 kts | 229° |
| 2026-04-19 09:40 | 50.04457 | 8.58457 | 374 ft | 22 kts | 250° |
| 2026-04-19 09:41 | 50.04322 | 8.57890 | 373 ft | 91 kts | 243° |
| 2026-04-19 09:41 | 50.04030 | 8.56665 | 366 ft | 149 kts | 248° |
| 2026-04-19 09:41 | 50.03622 | 8.54969 | 591 ft | 177 kts | 252° |
| 2026-04-19 09:41 | 50.03141 | 8.53107 | 1060 ft | 196 kts | 248° |
| 2026-04-19 09:42 | 50.02341 | 8.51269 | 1572 ft | 215 kts | 233° |
| 2026-04-19 09:42 | 50.01135 | 8.49795 | 2071 ft | 226 kts | 213° |
| 2026-04-19 09:42 | 49.99664 | 8.48859 | 2577 ft | 231 kts | 201° |
| 2026-04-19 09:42 | 49.98112 | 8.48160 | 3090 ft | 233 kts | 197° |
| 2026-04-19 09:43 | 49.96544 | 8.47491 | 3577 ft | 235 kts | 198° |
| 2026-04-19 09:43 | 49.94966 | 8.46752 | 4101 ft | 240 kts | 200° |
| 2026-04-19 09:43 | 49.93444 | 8.45633 | 4585 ft | 246 kts | 217° |
| 2026-04-19 09:43 | 49.92207 | 8.43925 | 4984 ft | 245 kts | 230° |
| 2026-04-19 09:44 | 49.91117 | 8.41935 | 5434 ft | 241 kts | 234° |
| 2026-04-19 09:44 | 49.90177 | 8.39802 | 5965 ft | 239 kts | 247° |
| 2026-04-19 09:44 | 49.89718 | 8.37331 | 6428 ft | 240 kts | 263° |
| 2026-04-19 09:44 | 49.89559 | 8.34738 | 6779 ft | 244 kts | 268° |
| 2026-04-19 09:45 | 49.89434 | 8.32095 | 7316 ft | 247 kts | 268° |
| 2026-04-19 09:45 | 49.89518 | 8.29431 | 7851 ft | 250 kts | 284° |
| 2026-04-19 09:45 | 49.90170 | 8.26939 | 8371 ft | 252 kts | 298° |
| 2026-04-19 09:45 | 49.91059 | 8.24580 | 8869 ft | 255 kts | 298° |
| 2026-04-19 09:46 | 49.91918 | 8.22207 | 9388 ft | 255 kts | 296° |
| 2026-04-19 09:46 | 49.92777 | 8.19790 | 9908 ft | 256 kts | 298° |
| 2026-04-19 09:46 | 49.93849 | 8.17525 | 10329 ft | 264 kts | 310° |
| 2026-04-19 09:46 | 49.95229 | 8.15539 | 10795 ft | 280 kts | 315° |
| 2026-04-19 09:47 | 49.96748 | 8.13456 | 11305 ft | 302 kts | 313° |
| 2026-04-19 09:47 | 49.98235 | 8.11208 | 11711 ft | 325 kts | 311° |
| 2026-04-19 09:47 | 49.99877 | 8.08668 | 12178 ft | 338 kts | 311° |
| 2026-04-19 09:47 | 50.01606 | 8.06149 | 12653 ft | 342 kts | 313° |
| 2026-04-19 09:48 | 50.03405 | 8.03680 | 12896 ft | 347 kts | 315° |
| 2026-04-19 09:48 | 50.05194 | 8.01297 | 13049 ft | 345 kts | 315° |
| 2026-04-19 09:48 | 50.06974 | 7.98936 | 13492 ft | 341 kts | 315° |
| 2026-04-19 09:48 | 50.08775 | 7.96512 | 14063 ft | 344 kts | 314° |
| 2026-04-19 09:49 | 50.10586 | 7.94050 | 14653 ft | 348 kts | 314° |
| 2026-04-19 09:49 | 50.12420 | 7.91562 | 15217 ft | 349 kts | 314° |
| 2026-04-19 09:49 | 50.14264 | 7.89084 | 15796 ft | 351 kts | 314° |
| 2026-04-19 09:49 | 50.16122 | 7.86598 | 16385 ft | 353 kts | 314° |
| 2026-04-19 09:50 | 50.17990 | 7.84093 | 16949 ft | 356 kts | 314° |
| 2026-04-19 09:50 | 50.19813 | 7.81634 | 17517 ft | 358 kts | 314° |
| 2026-04-19 09:50 | 50.21690 | 7.79098 | 18079 ft | 360 kts | 313° |
| 2026-04-19 09:50 | 50.23569 | 7.76579 | 18648 ft | 364 kts | 316° |
| 2026-04-19 09:51 | 50.25684 | 7.74320 | 19213 ft | 372 kts | 325° |
| 2026-04-19 09:51 | 50.28002 | 7.72551 | 19793 ft | 379 kts | 330° |
| 2026-04-19 09:51 | 50.30433 | 7.70890 | 20368 ft | 383 kts | 330° |
| 2026-04-19 09:51 | 50.32857 | 7.69161 | 20952 ft | 386 kts | 328° |
| 2026-04-19 09:52 | 50.35259 | 7.67422 | 21519 ft | 390 kts | 330° |
| 2026-04-19 09:52 | 50.37745 | 7.65741 | 22091 ft | 394 kts | 330° |
| 2026-04-19 09:52 | 50.40265 | 7.64005 | 22668 ft | 396 kts | 329° |
| 2026-04-19 09:52 | 50.42783 | 7.62188 | 23249 ft | 400 kts | 329° |
| 2026-04-19 09:53 | 50.45321 | 7.60342 | 23822 ft | 404 kts | 329° |
| 2026-04-19 09:53 | 50.47900 | 7.58512 | 24404 ft | 408 kts | 330° |
| 2026-04-19 09:53 | 50.50483 | 7.56717 | 24970 ft | 412 kts | 330° |
| 2026-04-19 09:53 | 50.53150 | 7.54880 | 25558 ft | 416 kts | 330° |
| 2026-04-19 09:54 | 50.55757 | 7.52840 | 26132 ft | 416 kts | 324° |
| 2026-04-19 09:54 | 50.58231 | 7.50424 | 26722 ft | 417 kts | 321° |
| 2026-04-19 09:54 | 50.60629 | 7.47910 | 27288 ft | 422 kts | 321° |
| 2026-04-19 09:54 | 50.63103 | 7.45368 | 27863 ft | 427 kts | 322° |
| 2026-04-19 09:55 | 50.65605 | 7.42872 | 28437 ft | 431 kts | 323° |
| 2026-04-19 09:55 | 50.68157 | 7.40332 | 29008 ft | 435 kts | 323° |
| 2026-04-19 09:55 | 50.70650 | 7.37628 | 29562 ft | 435 kts | 315° |
| 2026-04-19 09:55 | 50.72577 | 7.34284 | 30029 ft | 428 kts | 297° |
| 2026-04-19 09:56 | 50.73794 | 7.30054 | 30586 ft | 420 kts | 285° |
| 2026-04-19 09:56 | 50.74650 | 7.25636 | 31232 ft | 421 kts | 285° |
| 2026-04-19 09:56 | 50.75603 | 7.21233 | 31811 ft | 425 kts | 287° |
| 2026-04-19 09:56 | 50.76604 | 7.16787 | 32063 ft | 436 kts | 286° |
| 2026-04-19 09:57 | 50.77529 | 7.12226 | 32160 ft | 445 kts | 284° |
| 2026-04-19 09:57 | 50.79097 | 7.02747 | 32211 ft | 446 kts | 282° |
| 2026-04-19 09:58 | 50.80545 | 6.93210 | 32200 ft | 446 kts | 282° |
| 2026-04-19 09:58 | 50.81978 | 6.83672 | 32211 ft | 445 kts | 282° |
| 2026-04-19 09:59 | 50.83394 | 6.74113 | 32210 ft | 445 kts | 282° |
| 2026-04-19 09:59 | 50.84790 | 6.64578 | 32210 ft | 445 kts | 281° |
| 2026-04-19 10:00 | 50.86165 | 6.55091 | 32217 ft | 444 kts | 282° |
| 2026-04-19 10:00 | 50.87541 | 6.45535 | 32213 ft | 444 kts | 281° |
| 2026-04-19 10:01 | 50.88909 | 6.35995 | 32220 ft | 444 kts | 282° |
| 2026-04-19 10:01 | 50.90270 | 6.26444 | 32222 ft | 444 kts | 282° |
| 2026-04-19 10:02 | 50.91622 | 6.16893 | 32232 ft | 444 kts | 281° |
| 2026-04-19 10:02 | 50.92966 | 6.07334 | 32235 ft | 444 kts | 281° |
| 2026-04-19 10:03 | 50.94299 | 5.97769 | 32241 ft | 444 kts | 281° |
| 2026-04-19 10:03 | 50.95616 | 5.88283 | 32239 ft | 442 kts | 282° |
| 2026-04-19 10:04 | 50.96931 | 5.78759 | 32239 ft | 442 kts | 282° |
| 2026-04-19 10:04 | 50.98233 | 5.69238 | 32241 ft | 441 kts | 282° |
| 2026-04-19 10:05 | 50.99528 | 5.59723 | 32241 ft | 441 kts | 282° |
| 2026-04-19 10:05 | 51.00821 | 5.50187 | 32237 ft | 441 kts | 282° |
| 2026-04-19 10:06 | 51.02092 | 5.40651 | 32239 ft | 441 kts | 282° |
| 2026-04-19 10:06 | 51.03354 | 5.31186 | 32236 ft | 440 kts | 282° |
| 2026-04-19 10:07 | 51.04618 | 5.21654 | 32249 ft | 440 kts | 282° |
| 2026-04-19 10:07 | 51.05876 | 5.12111 | 32247 ft | 440 kts | 282° |
| 2026-04-19 10:08 | 51.07119 | 5.02591 | 32243 ft | 440 kts | 282° |
| 2026-04-19 10:08 | 51.08354 | 4.93071 | 32250 ft | 439 kts | 282° |
| 2026-04-19 10:09 | 51.09579 | 4.83628 | 32253 ft | 438 kts | 282° |
| 2026-04-19 10:09 | 51.10793 | 4.74137 | 32256 ft | 437 kts | 282° |
| 2026-04-19 10:10 | 51.11996 | 4.64643 | 32254 ft | 438 kts | 282° |
| 2026-04-19 10:10 | 51.13197 | 4.55146 | 32267 ft | 437 kts | 282° |
| 2026-04-19 10:11 | 51.14390 | 4.45643 | 32266 ft | 438 kts | 282° |
| 2026-04-19 10:11 | 51.15572 | 4.36128 | 32267 ft | 437 kts | 282° |
| 2026-04-19 10:12 | 51.16741 | 4.26704 | 32266 ft | 436 kts | 282° |
| 2026-04-19 10:12 | 51.17914 | 4.17203 | 32260 ft | 437 kts | 282° |
| 2026-04-19 10:13 | 51.19072 | 4.07701 | 32268 ft | 437 kts | 282° |
| 2026-04-19 10:13 | 51.20221 | 3.98185 | 32262 ft | 437 kts | 282° |
| 2026-04-19 10:14 | 51.21363 | 3.88679 | 32267 ft | 435 kts | 282° |
| 2026-04-19 10:14 | 51.22308 | 3.80797 | 32276 ft | 435 kts | 282° |
| 2026-04-19 10:15 | 51.23616 | 3.69760 | 32275 ft | 435 kts | 282° |
| 2026-04-19 10:15 | 51.24536 | 3.61854 | 32272 ft | 435 kts | 281° |
| 2026-04-19 10:16 | 51.25578 | 3.52318 | 32287 ft | 435 kts | 281° |
| 2026-04-19 10:16 | 51.26731 | 3.42841 | 32281 ft | 433 kts | 282° |
| 2026-04-19 10:17 | 51.27942 | 3.33463 | 32288 ft | 434 kts | 283° |
| 2026-04-19 10:17 | 51.29140 | 3.24012 | 32290 ft | 434 kts | 283° |
| 2026-04-19 10:18 | 51.30342 | 3.14567 | 32296 ft | 433 kts | 283° |
| 2026-04-19 10:18 | 51.31549 | 3.05140 | 32296 ft | 432 kts | 283° |
| 2026-04-19 10:19 | 51.33334 | 2.90994 | 32291 ft | 433 kts | 283° |
| 2026-04-19 10:19 | 51.34527 | 2.81548 | 32296 ft | 433 kts | 283° |
| 2026-04-19 10:20 | 51.35706 | 2.72090 | 32293 ft | 433 kts | 282° |
| 2026-04-19 10:20 | 51.36832 | 2.62687 | 32295 ft | 433 kts | 282° |
| 2026-04-19 10:21 | 51.37977 | 2.53216 | 32293 ft | 433 kts | 283° |
| 2026-04-19 10:21 | 51.39139 | 2.43742 | 32299 ft | 433 kts | 283° |
| 2026-04-19 10:22 | 51.40297 | 2.34232 | 32306 ft | 434 kts | 282° |
| 2026-04-19 10:22 | 51.41443 | 2.24783 | 32299 ft | 434 kts | 282° |
| 2026-04-19 10:23 | 51.42588 | 2.15282 | 32306 ft | 434 kts | 283° |
| 2026-04-19 10:23 | 51.43734 | 2.05768 | 32301 ft | 435 kts | 283° |
| 2026-04-19 10:24 | 51.44879 | 1.96253 | 32308 ft | 435 kts | 282° |
| 2026-04-19 10:24 | 51.45990 | 1.86724 | 32313 ft | 434 kts | 282° |
| 2026-04-19 10:25 | 51.47091 | 1.77257 | 32312 ft | 434 kts | 282° |
| 2026-04-19 10:25 | 51.48184 | 1.67707 | 32314 ft | 434 kts | 282° |
| 2026-04-19 10:26 | 51.49173 | 1.58160 | 32323 ft | 434 kts | 281° |
| 2026-04-19 10:26 | 51.50275 | 1.48644 | 32318 ft | 433 kts | 283° |
| 2026-04-19 10:27 | 51.51424 | 1.39147 | 32324 ft | 433 kts | 282° |
| 2026-04-19 10:27 | 51.52500 | 1.29677 | 32319 ft | 433 kts | 282° |
| 2026-04-19 10:28 | 51.53565 | 1.20139 | 32322 ft | 432 kts | 282° |
| 2026-04-19 10:28 | 51.54615 | 1.10625 | 32321 ft | 433 kts | 282° |
| 2026-04-19 10:29 | 51.55632 | 1.01097 | 32316 ft | 432 kts | 282° |
| 2026-04-19 10:29 | 51.56661 | 0.91599 | 32322 ft | 431 kts | 282° |
| 2026-04-19 10:30 | 51.57672 | 0.82151 | 32320 ft | 431 kts | 282° |
| 2026-04-19 10:30 | 51.58692 | 0.72648 | 32325 ft | 431 kts | 282° |
| 2026-04-19 10:31 | 51.59471 | 0.63088 | 32271 ft | 435 kts | 269° |
| 2026-04-19 10:31 | 51.58880 | 0.58302 | 32244 ft | 441 kts | 252° |
| 2026-04-19 10:31 | 51.57460 | 0.53915 | 32330 ft | 445 kts | 243° |
| 2026-04-19 10:32 | 51.54001 | 0.45510 | 32348 ft | 455 kts | 242° |
| 2026-04-19 10:32 | 51.50548 | 0.37077 | 32334 ft | 454 kts | 241° |
| 2026-04-19 10:33 | 51.46939 | 0.28735 | 32332 ft | 455 kts | 240° |
| 2026-04-19 10:33 | 51.43265 | 0.20458 | 32343 ft | 455 kts | 240° |
| 2026-04-19 10:34 | 51.39574 | 0.12195 | 32339 ft | 455 kts | 240° |
| 2026-04-19 10:34 | 51.35877 | 0.03955 | 32341 ft | 455 kts | 239° |
| 2026-04-19 10:35 | 51.32177 | -0.04254 | 32348 ft | 455 kts | 239° |
| 2026-04-19 10:35 | 51.28469 | -0.12456 | 32350 ft | 454 kts | 239° |
| 2026-04-19 10:36 | 51.24789 | -0.20576 | 32345 ft | 454 kts | 239° |
| 2026-04-19 10:36 | 51.21066 | -0.28732 | 32350 ft | 454 kts | 239° |
| 2026-04-19 10:37 | 51.17348 | -0.36878 | 32345 ft | 454 kts | 239° |
| 2026-04-19 10:37 | 51.13619 | -0.45013 | 32351 ft | 454 kts | 239° |
| 2026-04-19 10:38 | 51.09880 | -0.53142 | 32356 ft | 455 kts | 238° |
| 2026-04-19 10:38 | 51.06478 | -0.61469 | 32312 ft | 447 kts | 251° |
| 2026-04-19 10:39 | 51.04692 | -0.70790 | 32356 ft | 440 kts | 260° |
| 2026-04-19 10:39 | 51.03249 | -0.80271 | 32349 ft | 442 kts | 260° |
| 2026-04-19 10:40 | 51.01823 | -0.89757 | 32348 ft | 441 kts | 261° |
| 2026-04-19 10:40 | 51.00463 | -0.99252 | 32349 ft | 441 kts | 261° |
| 2026-04-19 10:41 | 50.99157 | -1.08762 | 32357 ft | 440 kts | 261° |
| 2026-04-19 10:41 | 50.97837 | -1.18274 | 32344 ft | 441 kts | 261° |
| 2026-04-19 10:42 | 50.96529 | -1.27713 | 32350 ft | 441 kts | 261° |
| 2026-04-19 10:42 | 50.95343 | -1.37234 | 32351 ft | 439 kts | 263° |
| 2026-04-19 10:43 | 50.94105 | -1.46746 | 32342 ft | 440 kts | 261° |
| 2026-04-19 10:43 | 50.92812 | -1.56245 | 32344 ft | 440 kts | 262° |
| 2026-04-19 10:44 | 50.91591 | -1.65740 | 32352 ft | 440 kts | 262° |
| 2026-04-19 10:44 | 50.90368 | -1.75238 | 32351 ft | 440 kts | 262° |
| 2026-04-19 10:45 | 50.89136 | -1.84730 | 32349 ft | 440 kts | 262° |
| 2026-04-19 10:45 | 50.87909 | -1.94153 | 32350 ft | 439 kts | 262° |
| 2026-04-19 10:46 | 50.86651 | -2.03631 | 32345 ft | 440 kts | 261° |
| 2026-04-19 10:46 | 50.85357 | -2.13117 | 32349 ft | 441 kts | 261° |
| 2026-04-19 10:47 | 50.84076 | -2.22610 | 32359 ft | 441 kts | 261° |
| 2026-04-19 10:47 | 50.82800 | -2.32118 | 32351 ft | 441 kts | 261° |
| 2026-04-19 10:48 | 50.81529 | -2.41553 | 32369 ft | 441 kts | 261° |
| 2026-04-19 10:48 | 50.80235 | -2.51042 | 32366 ft | 442 kts | 261° |
| 2026-04-19 10:49 | 50.78967 | -2.60547 | 32366 ft | 442 kts | 261° |
| 2026-04-19 10:49 | 50.77681 | -2.70056 | 32374 ft | 443 kts | 261° |
| 2026-04-19 10:50 | 50.76398 | -2.79580 | 32375 ft | 443 kts | 262° |
| 2026-04-19 10:50 | 50.75130 | -2.89047 | 32377 ft | 442 kts | 262° |
| 2026-04-19 10:51 | 50.73851 | -2.98572 | 32375 ft | 443 kts | 261° |
| 2026-04-19 10:51 | 50.72557 | -3.08097 | 32376 ft | 444 kts | 261° |
| 2026-04-19 10:52 | 50.71261 | -3.17638 | 32374 ft | 445 kts | 261° |
| 2026-04-19 10:52 | 50.69959 | -3.27136 | 32379 ft | 445 kts | 261° |
| 2026-04-19 10:53 | 50.68639 | -3.36689 | 32374 ft | 445 kts | 261° |
| 2026-04-19 10:53 | 50.67313 | -3.46248 | 32379 ft | 446 kts | 261° |
| 2026-04-19 10:54 | 50.65979 | -3.55795 | 32373 ft | 446 kts | 261° |
| 2026-04-19 10:54 | 50.64633 | -3.65346 | 32377 ft | 446 kts | 261° |
| 2026-04-19 10:55 | 50.63290 | -3.74843 | 32375 ft | 447 kts | 261° |
| 2026-04-19 10:55 | 50.61928 | -3.84388 | 32373 ft | 447 kts | 261° |
| 2026-04-19 10:56 | 50.60558 | -3.93944 | 32376 ft | 447 kts | 261° |
| 2026-04-19 10:56 | 50.59182 | -4.03479 | 32371 ft | 447 kts | 261° |
| 2026-04-19 10:57 | 50.57793 | -4.13038 | 32377 ft | 449 kts | 261° |
| 2026-04-19 10:57 | 50.56400 | -4.22578 | 32378 ft | 450 kts | 261° |
| 2026-04-19 10:58 | 50.54989 | -4.32176 | 32374 ft | 450 kts | 261° |
| 2026-04-19 10:58 | 50.53574 | -4.41766 | 32379 ft | 450 kts | 261° |
| 2026-04-19 10:59 | 50.52145 | -4.51379 | 32371 ft | 451 kts | 261° |
| 2026-04-19 10:59 | 50.50706 | -4.60980 | 32377 ft | 451 kts | 261° |
| 2026-04-19 11:00 | 50.49263 | -4.70534 | 32380 ft | 452 kts | 261° |
| 2026-04-19 11:00 | 50.47808 | -4.80136 | 32375 ft | 453 kts | 261° |
| 2026-04-19 11:01 | 50.46341 | -4.89779 | 32375 ft | 454 kts | 261° |
| 2026-04-19 11:01 | 50.44863 | -4.99411 | 32378 ft | 455 kts | 260° |
| 2026-04-19 11:02 | 50.43614 | -5.07442 | 32374 ft | 456 kts | 260° |
| 2026-04-19 11:02 | 50.42118 | -5.17130 | 32375 ft | 457 kts | 260° |
| 2026-04-19 11:03 | 50.40611 | -5.26828 | 32369 ft | 458 kts | 260° |
| 2026-04-19 11:03 | 50.39084 | -5.36555 | 32365 ft | 459 kts | 260° |
| 2026-04-19 11:04 | 50.37550 | -5.46267 | 32365 ft | 460 kts | 260° |
| 2026-04-19 11:04 | 50.35999 | -5.56012 | 32353 ft | 461 kts | 260° |
| 2026-04-19 11:05 | 50.34431 | -5.65700 | 32342 ft | 463 kts | 256° |
| 2026-04-19 11:05 | 50.31639 | -5.74868 | 32389 ft | 470 kts | 243° |
| 2026-04-19 11:06 | 50.28413 | -5.83811 | 32365 ft | 471 kts | 246° |
| 2026-04-19 11:06 | 50.25354 | -5.92903 | 32349 ft | 472 kts | 246° |
| 2026-04-19 11:07 | 50.22253 | -6.01876 | 32350 ft | 472 kts | 245° |
| 2026-04-19 11:07 | 50.19102 | -6.10868 | 32365 ft | 472 kts | 245° |
| 2026-04-19 11:08 | 50.15947 | -6.19855 | 32348 ft | 472 kts | 245° |
| 2026-04-19 11:08 | 50.12789 | -6.28839 | 32349 ft | 472 kts | 245° |
| 2026-04-19 11:09 | 50.09623 | -6.37812 | 32350 ft | 473 kts | 245° |
| 2026-04-19 11:09 | 50.06443 | -6.46786 | 32345 ft | 473 kts | 245° |
| 2026-04-19 11:10 | 50.03277 | -6.55690 | 32343 ft | 473 kts | 245° |
| 2026-04-19 11:10 | 50.00072 | -6.64635 | 32349 ft | 473 kts | 244° |
| 2026-04-19 11:11 | 49.96868 | -6.73575 | 32345 ft | 473 kts | 244° |
| 2026-04-19 11:11 | 49.93661 | -6.82491 | 32350 ft | 472 kts | 244° |
| 2026-04-19 11:12 | 49.90444 | -6.91400 | 32350 ft | 473 kts | 243° |
| 2026-04-19 11:12 | 49.87239 | -7.00240 | 32343 ft | 474 kts | 243° |
| 2026-04-19 11:13 | 49.84005 | -7.09137 | 32345 ft | 473 kts | 243° |
| 2026-04-19 11:13 | 49.80761 | -7.18030 | 32346 ft | 473 kts | 243° |
| 2026-04-19 11:14 | 49.77505 | -7.26907 | 32336 ft | 474 kts | 243° |
| 2026-04-19 11:14 | 49.74248 | -7.35781 | 32339 ft | 474 kts | 243° |
| 2026-04-19 11:15 | 49.70982 | -7.44640 | 32342 ft | 475 kts | 243° |
| 2026-04-19 11:15 | 49.67708 | -7.53503 | 32337 ft | 475 kts | 242° |
| 2026-04-19 11:16 | 49.64435 | -7.62314 | 32348 ft | 475 kts | 242° |
| 2026-04-19 11:16 | 49.61141 | -7.71163 | 32335 ft | 475 kts | 242° |
| 2026-04-19 11:17 | 49.57837 | -7.80018 | 32343 ft | 475 kts | 242° |
| 2026-04-19 11:17 | 49.54528 | -7.88845 | 32341 ft | 476 kts | 242° |
| 2026-04-19 11:18 | 49.51243 | -7.97614 | 32332 ft | 476 kts | 243° |
| 2026-04-19 11:18 | 49.48341 | -8.06731 | 32335 ft | 474 kts | 247° |
| 2026-04-19 11:19 | 49.45497 | -8.15889 | 32333 ft | 475 kts | 246° |
| 2026-04-19 11:19 | 49.42677 | -8.25057 | 32337 ft | 474 kts | 247° |
| 2026-04-19 11:20 | 49.39933 | -8.34266 | 32341 ft | 474 kts | 247° |
| 2026-04-19 11:20 | 49.37204 | -8.43421 | 32344 ft | 474 kts | 247° |
| 2026-04-19 11:21 | 49.34459 | -8.52633 | 32333 ft | 473 kts | 247° |
| 2026-04-19 11:22 | 49.30347 | -8.66352 | 32329 ft | 473 kts | 246° |
| 2026-04-19 11:22 | 49.27588 | -8.75521 | 32334 ft | 473 kts | 246° |
| 2026-04-19 11:23 | 49.24823 | -8.84681 | 32325 ft | 473 kts | 246° |
| 2026-04-19 11:23 | 49.22080 | -8.93779 | 32333 ft | 473 kts | 246° |
| 2026-04-19 11:24 | 49.19300 | -9.02891 | 32326 ft | 473 kts | 246° |
| 2026-04-19 11:24 | 49.16517 | -9.12005 | 32331 ft | 473 kts | 246° |
| 2026-04-19 11:25 | 49.13726 | -9.21107 | 32329 ft | 473 kts | 246° |
| 2026-04-19 11:25 | 49.10927 | -9.30201 | 32330 ft | 473 kts | 245° |
| 2026-04-19 11:26 | 49.08122 | -9.39280 | 32336 ft | 472 kts | 245° |
| 2026-04-19 11:26 | 49.05313 | -9.48352 | 32331 ft | 473 kts | 245° |
| 2026-04-19 11:27 | 49.02520 | -9.57341 | 32334 ft | 472 kts | 245° |
| 2026-04-19 11:27 | 48.99695 | -9.66374 | 32326 ft | 472 kts | 245° |
| 2026-04-19 11:28 | 48.96872 | -9.75400 | 32337 ft | 472 kts | 245° |
| 2026-04-19 11:28 | 48.94040 | -9.84409 | 32327 ft | 471 kts | 245° |
| 2026-04-19 11:29 | 48.91201 | -9.93402 | 32331 ft | 471 kts | 245° |
| 2026-04-19 11:29 | 48.88360 | -10.02373 | 32325 ft | 471 kts | 244° |
| 2026-04-19 11:30 | 48.85532 | -10.11265 | 32311 ft | 470 kts | 244° |
| 2026-04-19 11:30 | 48.82689 | -10.20181 | 32313 ft | 469 kts | 244° |
| 2026-04-19 11:31 | 48.79833 | -10.29102 | 32311 ft | 469 kts | 244° |
| 2026-04-19 11:31 | 48.76982 | -10.37982 | 32264 ft | 468 kts | 244° |
| 2026-04-19 11:32 | 48.74115 | -10.46863 | 32261 ft | 468 kts | 243° |
| 2026-04-19 11:32 | 48.71002 | -10.55450 | 32255 ft | 467 kts | 239° |
| 2026-04-19 11:33 | 48.67646 | -10.63893 | 32257 ft | 467 kts | 240° |
| 2026-04-19 11:33 | 48.64418 | -10.72430 | 32255 ft | 467 kts | 240° |
| 2026-04-19 11:34 | 48.61219 | -10.80986 | 32252 ft | 467 kts | 240° |
| 2026-04-19 11:34 | 48.58035 | -10.89451 | 32245 ft | 466 kts | 240° |
| 2026-04-19 11:35 | 48.54830 | -10.97971 | 32246 ft | 466 kts | 240° |
| 2026-04-19 11:35 | 48.51636 | -11.06463 | 32247 ft | 465 kts | 240° |
| 2026-04-19 11:36 | 48.48428 | -11.14941 | 32244 ft | 465 kts | 240° |
| 2026-04-19 11:36 | 48.45225 | -11.23380 | 32243 ft | 463 kts | 240° |
| 2026-04-19 11:37 | 48.42023 | -11.31802 | 32236 ft | 462 kts | 240° |
| 2026-04-19 11:37 | 48.38833 | -11.40137 | 32240 ft | 461 kts | 240° |
| 2026-04-19 11:38 | 48.35637 | -11.48486 | 32239 ft | 459 kts | 240° |
| 2026-04-19 11:38 | 48.32446 | -11.56791 | 32233 ft | 458 kts | 239° |
| 2026-04-19 11:39 | 48.29258 | -11.65051 | 32230 ft | 457 kts | 239° |
| 2026-04-19 11:39 | 48.26070 | -11.73315 | 32234 ft | 456 kts | 239° |
| 2026-04-19 11:40 | 48.22900 | -11.81475 | 32234 ft | 454 kts | 239° |
| 2026-04-19 11:40 | 48.19705 | -11.89662 | 32230 ft | 454 kts | 239° |
| 2026-04-19 11:41 | 48.16528 | -11.97832 | 32230 ft | 453 kts | 239° |
| 2026-04-19 11:41 | 48.13349 | -12.05970 | 32235 ft | 452 kts | 239° |
| 2026-04-19 11:42 | 48.10174 | -12.14040 | 32221 ft | 452 kts | 239° |
| 2026-04-19 11:42 | 48.06984 | -12.22155 | 32220 ft | 453 kts | 239° |
| 2026-04-19 11:43 | 48.03772 | -12.30274 | 32216 ft | 453 kts | 239° |
| 2026-04-19 11:43 | 48.00558 | -12.38369 | 32214 ft | 453 kts | 239° |
| 2026-04-19 11:44 | 47.97348 | -12.46479 | 32219 ft | 453 kts | 239° |
| 2026-04-19 11:44 | 47.94131 | -12.54544 | 32216 ft | 451 kts | 239° |
| 2026-04-19 11:45 | 47.90936 | -12.62518 | 32206 ft | 450 kts | 238° |
| 2026-04-19 11:45 | 47.87722 | -12.70529 | 32217 ft | 450 kts | 238° |
| 2026-04-19 11:46 | 47.84505 | -12.78520 | 32214 ft | 449 kts | 238° |
| 2026-04-19 11:46 | 47.81288 | -12.86492 | 32217 ft | 449 kts | 238° |
| 2026-04-19 11:47 | 47.78612 | -12.93107 | 32201 ft | 449 kts | 238° |
| 2026-04-19 11:47 | 47.74868 | -13.02334 | 32215 ft | 449 kts | 238° |
| 2026-04-19 11:48 | 47.72159 | -13.08986 | 32200 ft | 448 kts | 238° |
| 2026-04-19 11:48 | 47.68947 | -13.16869 | 32204 ft | 448 kts | 237° |
| 2026-04-19 11:49 | 47.65717 | -13.24770 | 32210 ft | 447 kts | 237° |
| 2026-04-19 11:49 | 47.62476 | -13.32661 | 32198 ft | 448 kts | 237° |
| 2026-04-19 11:50 | 47.59225 | -13.40545 | 32200 ft | 447 kts | 237° |
| 2026-04-19 11:50 | 47.55978 | -13.48418 | 32205 ft | 447 kts | 237° |
| 2026-04-19 11:51 | 47.52734 | -13.56251 | 32193 ft | 448 kts | 237° |
| 2026-04-19 11:51 | 47.49478 | -13.64101 | 32196 ft | 448 kts | 237° |
| 2026-04-19 11:52 | 47.46229 | -13.71904 | 32189 ft | 448 kts | 237° |
| 2026-04-19 11:52 | 47.42945 | -13.79766 | 32190 ft | 448 kts | 237° |
| 2026-04-19 11:53 | 47.39670 | -13.87590 | 32194 ft | 448 kts | 237° |
| 2026-04-19 11:53 | 47.36387 | -13.95406 | 32197 ft | 448 kts | 236° |
| 2026-04-19 11:54 | 47.33121 | -14.03165 | 32193 ft | 447 kts | 236° |
| 2026-04-19 11:54 | 47.29832 | -14.10948 | 32195 ft | 446 kts | 236° |
| 2026-04-19 11:55 | 47.26546 | -14.18711 | 32194 ft | 447 kts | 236° |
| 2026-04-19 11:55 | 47.23248 | -14.26467 | 32189 ft | 446 kts | 236° |
| 2026-04-19 11:56 | 47.19952 | -14.34193 | 32190 ft | 445 kts | 236° |
| 2026-04-19 11:56 | 47.16661 | -14.41914 | 32190 ft | 445 kts | 236° |
| 2026-04-19 11:57 | 47.13388 | -14.49562 | 32182 ft | 445 kts | 236° |
| 2026-04-19 11:57 | 47.10091 | -14.57232 | 32186 ft | 444 kts | 236° |
| 2026-04-19 11:58 | 47.06783 | -14.64893 | 32184 ft | 444 kts | 236° |
| 2026-04-19 11:58 | 47.03476 | -14.72545 | 32181 ft | 443 kts | 236° |
| 2026-04-19 11:59 | 47.00173 | -14.80178 | 32174 ft | 443 kts | 236° |
| 2026-04-19 11:59 | 46.96858 | -14.87802 | 32174 ft | 443 kts | 236° |
| 2026-04-19 12:00 | 46.93550 | -14.95402 | 32173 ft | 443 kts | 236° |
| 2026-04-19 12:00 | 46.90262 | -15.02947 | 32172 ft | 443 kts | 236° |
| 2026-04-19 12:01 | 46.86937 | -15.10523 | 32173 ft | 442 kts | 236° |
| 2026-04-19 12:01 | 46.83606 | -15.18089 | 32172 ft | 442 kts | 236° |
| 2026-04-19 12:02 | 46.80284 | -15.25633 | 32171 ft | 441 kts | 236° |
| 2026-04-19 12:02 | 46.76962 | -15.33157 | 32179 ft | 441 kts | 236° |
| 2026-04-19 12:03 | 46.73630 | -15.40667 | 32167 ft | 440 kts | 236° |
| 2026-04-19 12:03 | 46.70308 | -15.48153 | 32165 ft | 439 kts | 236° |
| 2026-04-19 12:04 | 46.67008 | -15.55572 | 32164 ft | 438 kts | 236° |
| 2026-04-19 12:04 | 46.63687 | -15.62985 | 32168 ft | 435 kts | 236° |
| 2026-04-19 12:05 | 46.60392 | -15.70335 | 32169 ft | 433 kts | 236° |
| 2026-04-19 12:05 | 46.57101 | -15.77671 | 32164 ft | 433 kts | 236° |
| 2026-04-19 12:06 | 46.53804 | -15.85001 | 32166 ft | 432 kts | 236° |
| 2026-04-19 12:06 | 46.50510 | -15.92295 | 32163 ft | 432 kts | 236° |
| 2026-04-19 12:07 | 46.47238 | -15.99534 | 32164 ft | 431 kts | 235° |
| 2026-04-19 12:07 | 46.43931 | -16.06797 | 32168 ft | 431 kts | 236° |
| 2026-04-19 12:08 | 46.40624 | -16.14082 | 32161 ft | 432 kts | 236° |
| 2026-04-19 12:08 | 46.37312 | -16.21360 | 32167 ft | 432 kts | 236° |
| 2026-04-19 12:09 | 46.33994 | -16.28633 | 32164 ft | 433 kts | 236° |
| 2026-04-19 12:09 | 46.30658 | -16.35898 | 32158 ft | 433 kts | 236° |
| 2026-04-19 12:10 | 46.27333 | -16.43121 | 32156 ft | 434 kts | 235° |
| 2026-04-19 12:10 | 46.23994 | -16.50381 | 32157 ft | 434 kts | 235° |
| 2026-04-19 12:11 | 46.20636 | -16.57650 | 32158 ft | 435 kts | 236° |
| 2026-04-19 12:11 | 46.17267 | -16.64935 | 32154 ft | 437 kts | 236° |
| 2026-04-19 12:12 | 46.13901 | -16.72187 | 32156 ft | 438 kts | 236° |
| 2026-04-19 12:12 | 46.10505 | -16.79483 | 32155 ft | 439 kts | 236° |
| 2026-04-19 12:13 | 46.07103 | -16.86799 | 32155 ft | 440 kts | 236° |
| 2026-04-19 12:13 | 46.03679 | -16.94133 | 32156 ft | 442 kts | 236° |
| 2026-04-19 12:14 | 46.00316 | -17.01555 | 32154 ft | 443 kts | 239° |
| 2026-04-19 12:14 | 45.97140 | -17.09119 | 32153 ft | 444 kts | 237° |
| 2026-04-19 12:15 | 45.93872 | -17.16646 | 32153 ft | 444 kts | 239° |
| 2026-04-19 12:15 | 45.90837 | -17.24384 | 32156 ft | 445 kts | 241° |
| 2026-04-19 12:16 | 45.87851 | -17.32195 | 32157 ft | 446 kts | 241° |
| 2026-04-19 12:16 | 45.84861 | -17.39980 | 32156 ft | 448 kts | 242° |
| 2026-04-19 12:17 | 45.81858 | -17.47826 | 32147 ft | 450 kts | 242° |
| 2026-04-19 12:17 | 45.78840 | -17.55696 | 32144 ft | 451 kts | 242° |
| 2026-04-19 12:18 | 45.75812 | -17.63578 | 32148 ft | 451 kts | 242° |
| 2026-04-19 12:18 | 45.72794 | -17.71420 | 32141 ft | 453 kts | 242° |
| 2026-04-19 12:19 | 45.69737 | -17.79317 | 32144 ft | 453 kts | 242° |
| 2026-04-19 12:19 | 45.66680 | -17.87197 | 32143 ft | 453 kts | 242° |
| 2026-04-19 12:20 | 45.63619 | -17.95080 | 32148 ft | 453 kts | 242° |
| 2026-04-19 12:20 | 45.60549 | -18.02969 | 32148 ft | 454 kts | 242° |
| 2026-04-19 12:21 | 45.57464 | -18.10847 | 32149 ft | 455 kts | 242° |
| 2026-04-19 12:21 | 45.54371 | -18.18729 | 32148 ft | 455 kts | 242° |
| 2026-04-19 12:22 | 45.51276 | -18.26599 | 32145 ft | 454 kts | 242° |
| 2026-04-19 12:22 | 45.48198 | -18.34414 | 32151 ft | 454 kts | 241° |
| 2026-04-19 12:23 | 45.45089 | -18.42266 | 32144 ft | 454 kts | 241° |
| 2026-04-19 12:23 | 45.41979 | -18.50086 | 32149 ft | 454 kts | 241° |
| 2026-04-19 12:24 | 45.38866 | -18.57917 | 32143 ft | 453 kts | 241° |
| 2026-04-19 12:24 | 45.35776 | -18.65676 | 32142 ft | 453 kts | 241° |
| 2026-04-19 12:25 | 45.32656 | -18.73480 | 32137 ft | 453 kts | 241° |
| 2026-04-19 12:25 | 45.29538 | -18.81272 | 32129 ft | 454 kts | 241° |
| 2026-04-19 12:26 | 45.26397 | -18.89048 | 32143 ft | 453 kts | 241° |
| 2026-04-19 12:26 | 45.23286 | -18.96787 | 32131 ft | 454 kts | 241° |
| 2026-04-19 12:27 | 45.20133 | -19.04560 | 32139 ft | 454 kts | 241° |
| 2026-04-19 12:27 | 45.16978 | -19.12327 | 32144 ft | 454 kts | 241° |
| 2026-04-19 12:28 | 45.12252 | -19.23966 | 32148 ft | 454 kts | 241° |
| 2026-04-19 12:28 | 45.09091 | -19.31731 | 32147 ft | 456 kts | 241° |
| 2026-04-19 12:29 | 45.05930 | -19.39433 | 32150 ft | 455 kts | 241° |
| 2026-04-19 12:29 | 45.02743 | -19.47178 | 32148 ft | 455 kts | 241° |
| 2026-04-19 12:30 | 44.99557 | -19.54936 | 32149 ft | 456 kts | 241° |
| 2026-04-19 12:30 | 44.96356 | -19.62690 | 32148 ft | 457 kts | 241° |
| 2026-04-19 12:31 | 44.93165 | -19.70410 | 32151 ft | 457 kts | 241° |
| 2026-04-19 12:31 | 44.89944 | -19.78158 | 32141 ft | 458 kts | 241° |
| 2026-04-19 12:32 | 44.86720 | -19.85902 | 32151 ft | 457 kts | 241° |
| 2026-04-19 12:32 | 44.83484 | -19.93652 | 32135 ft | 458 kts | 241° |
| 2026-04-19 12:33 | 44.80261 | -20.01356 | 32138 ft | 460 kts | 241° |
| 2026-04-19 12:33 | 44.77003 | -20.09105 | 32144 ft | 459 kts | 241° |
| 2026-04-19 12:34 | 44.74299 | -20.15539 | 32132 ft | 460 kts | 241° |
| 2026-04-19 12:34 | 44.71040 | -20.23276 | 32132 ft | 459 kts | 240° |
| 2026-04-19 12:35 | 44.67770 | -20.30997 | 32135 ft | 459 kts | 240° |
| 2026-04-19 12:35 | 44.64499 | -20.38707 | 32135 ft | 459 kts | 240° |
| 2026-04-19 12:36 | 44.61220 | -20.46411 | 32142 ft | 459 kts | 240° |
| 2026-04-19 12:36 | 44.57958 | -20.54054 | 32135 ft | 459 kts | 240° |
| 2026-04-19 12:37 | 44.54675 | -20.61740 | 32129 ft | 459 kts | 240° |
| 2026-04-19 12:37 | 44.51384 | -20.69413 | 32114 ft | 459 kts | 240° |
| 2026-04-19 12:38 | 44.48085 | -20.77084 | 32124 ft | 459 kts | 240° |
| 2026-04-19 12:38 | 44.44794 | -20.84740 | 32121 ft | 458 kts | 240° |
| 2026-04-19 12:39 | 44.41500 | -20.92352 | 32098 ft | 457 kts | 240° |
| 2026-04-19 12:39 | 44.38224 | -20.99897 | 32120 ft | 456 kts | 239° |
| 2026-04-19 12:40 | 44.34922 | -21.07484 | 32101 ft | 457 kts | 239° |
| 2026-04-19 12:40 | 44.31633 | -21.15048 | 32107 ft | 455 kts | 239° |
| 2026-04-19 12:41 | 44.28331 | -21.22596 | 32101 ft | 455 kts | 239° |
| 2026-04-19 12:41 | 44.25026 | -21.30113 | 32122 ft | 454 kts | 239° |
| 2026-04-19 12:42 | 44.21735 | -21.37627 | 32099 ft | 453 kts | 239° |
| 2026-04-19 12:42 | 44.18440 | -21.45119 | 32113 ft | 452 kts | 239° |
| 2026-04-19 12:43 | 44.15156 | -21.52541 | 32118 ft | 452 kts | 239° |
| 2026-04-19 12:43 | 44.11855 | -21.59996 | 32096 ft | 452 kts | 239° |
| 2026-04-19 12:44 | 44.08557 | -21.67432 | 32113 ft | 451 kts | 238° |
| 2026-04-19 12:44 | 44.05245 | -21.74865 | 32091 ft | 452 kts | 238° |
| 2026-04-19 12:45 | 44.01930 | -21.82285 | 32051 ft | 451 kts | 238° |
| 2026-04-19 12:45 | 43.98639 | -21.89632 | 32047 ft | 450 kts | 238° |
| 2026-04-19 12:46 | 43.95332 | -21.97020 | 32042 ft | 450 kts | 238° |
| 2026-04-19 12:46 | 43.92004 | -22.04400 | 32043 ft | 451 kts | 238° |
| 2026-04-19 12:47 | 43.88687 | -22.11774 | 32045 ft | 451 kts | 238° |
| 2026-04-19 12:47 | 43.85364 | -22.19165 | 32046 ft | 450 kts | 238° |
| 2026-04-19 12:48 | 43.82043 | -22.26470 | 32044 ft | 451 kts | 238° |
| 2026-04-19 12:48 | 43.78704 | -22.33815 | 32044 ft | 451 kts | 238° |
| 2026-04-19 12:49 | 43.75369 | -22.41155 | 32050 ft | 450 kts | 238° |
| 2026-04-19 12:49 | 43.72022 | -22.48483 | 32048 ft | 450 kts | 238° |
| 2026-04-19 12:50 | 43.68677 | -22.55795 | 32046 ft | 449 kts | 238° |
| 2026-04-19 12:50 | 43.65329 | -22.63085 | 32045 ft | 450 kts | 238° |
| 2026-04-19 12:51 | 43.61978 | -22.70390 | 32043 ft | 449 kts | 238° |
| 2026-04-19 12:51 | 43.58625 | -22.77666 | 32042 ft | 449 kts | 237° |
| 2026-04-19 12:52 | 43.55286 | -22.84880 | 32042 ft | 448 kts | 237° |
| 2026-04-19 12:52 | 43.51927 | -22.92117 | 32045 ft | 448 kts | 237° |
| 2026-04-19 12:53 | 43.48571 | -22.99354 | 32045 ft | 448 kts | 237° |
| 2026-04-19 12:53 | 43.45212 | -23.06570 | 32040 ft | 447 kts | 237° |
| 2026-04-19 12:54 | 43.41852 | -23.13760 | 32042 ft | 446 kts | 237° |
| 2026-04-19 12:54 | 43.38489 | -23.20934 | 32042 ft | 445 kts | 237° |
| 2026-04-19 12:55 | 43.35134 | -23.28082 | 32046 ft | 445 kts | 237° |
| 2026-04-19 12:55 | 43.31784 | -23.35224 | 32049 ft | 444 kts | 237° |
| 2026-04-19 12:56 | 43.28453 | -23.42298 | 32040 ft | 444 kts | 237° |
| 2026-04-19 12:56 | 43.25094 | -23.49392 | 32045 ft | 443 kts | 237° |
| 2026-04-19 12:57 | 43.21735 | -23.56480 | 32049 ft | 443 kts | 237° |
| 2026-04-19 12:57 | 43.18372 | -23.63568 | 32025 ft | 443 kts | 237° |
| 2026-04-19 12:58 | 43.15004 | -23.70633 | 32024 ft | 443 kts | 237° |
| 2026-04-19 12:58 | 43.11652 | -23.77662 | 32027 ft | 443 kts | 237° |
| 2026-04-19 12:59 | 43.08272 | -23.84722 | 32027 ft | 443 kts | 237° |
| 2026-04-19 12:59 | 43.04893 | -23.91786 | 32025 ft | 444 kts | 237° |
| 2026-04-19 13:00 | 43.01464 | -23.98810 | 32024 ft | 444 kts | 234° |
| 2026-04-19 13:00 | 42.97513 | -24.05285 | 32021 ft | 443 kts | 227° |
| 2026-04-19 13:01 | 42.93292 | -24.11392 | 32027 ft | 441 kts | 229° |
| 2026-04-19 13:01 | 42.89345 | -24.17746 | 32027 ft | 442 kts | 231° |
| 2026-04-19 13:02 | 42.85415 | -24.24228 | 32028 ft | 443 kts | 231° |
| 2026-04-19 13:02 | 42.81467 | -24.30694 | 32026 ft | 443 kts | 231° |
| 2026-04-19 13:03 | 42.77528 | -24.37153 | 32027 ft | 444 kts | 231° |
| 2026-04-19 13:03 | 42.73594 | -24.43636 | 32027 ft | 444 kts | 231° |
| 2026-04-19 13:04 | 42.69664 | -24.50064 | 32029 ft | 444 kts | 231° |
| 2026-04-19 13:04 | 42.65715 | -24.56539 | 32023 ft | 444 kts | 231° |
| 2026-04-19 13:05 | 42.61752 | -24.62996 | 32027 ft | 444 kts | 231° |
| 2026-04-19 13:05 | 42.57790 | -24.69444 | 32025 ft | 444 kts | 231° |
| 2026-04-19 13:06 | 42.53852 | -24.75844 | 32027 ft | 444 kts | 231° |
| 2026-04-19 13:06 | 42.49880 | -24.82275 | 32027 ft | 443 kts | 231° |
| 2026-04-19 13:07 | 42.45921 | -24.88676 | 32025 ft | 443 kts | 231° |
| 2026-04-19 13:07 | 42.41959 | -24.95076 | 32029 ft | 443 kts | 231° |
| 2026-04-19 13:08 | 42.37994 | -25.01467 | 32022 ft | 443 kts | 231° |
| 2026-04-19 13:08 | 42.34024 | -25.07841 | 32024 ft | 442 kts | 230° |
| 2026-04-19 13:09 | 42.30086 | -25.14150 | 32027 ft | 442 kts | 230° |
| 2026-04-19 13:09 | 42.26116 | -25.20499 | 32033 ft | 442 kts | 231° |
| 2026-04-19 13:10 | 42.22155 | -25.26831 | 32046 ft | 441 kts | 231° |
| 2026-04-19 13:10 | 42.18196 | -25.33157 | 32043 ft | 441 kts | 231° |
| 2026-04-19 13:11 | 42.14224 | -25.39465 | 32040 ft | 441 kts | 231° |
| 2026-04-19 13:11 | 42.10252 | -25.45763 | 32044 ft | 440 kts | 230° |
| 2026-04-19 13:12 | 42.06307 | -25.52010 | 32043 ft | 440 kts | 230° |
| 2026-04-19 13:12 | 42.02332 | -25.58287 | 32046 ft | 440 kts | 230° |
| 2026-04-19 13:13 | 41.98356 | -25.64552 | 32043 ft | 440 kts | 231° |
| 2026-04-19 13:13 | 41.94371 | -25.70825 | 32046 ft | 442 kts | 230° |
| 2026-04-19 13:14 | 41.90377 | -25.77102 | 32051 ft | 441 kts | 230° |
| 2026-04-19 13:14 | 41.86406 | -25.83319 | 32043 ft | 441 kts | 230° |
| 2026-04-19 13:15 | 41.82409 | -25.89565 | 32051 ft | 441 kts | 230° |
| 2026-04-19 13:15 | 41.78417 | -25.95805 | 32047 ft | 441 kts | 230° |
| 2026-04-19 13:16 | 41.74411 | -26.02036 | 32058 ft | 441 kts | 230° |
| 2026-04-19 13:16 | 41.70417 | -26.08241 | 32051 ft | 441 kts | 230° |
| 2026-04-19 13:17 | 41.66412 | -26.14455 | 32054 ft | 440 kts | 230° |
| 2026-04-19 13:17 | 41.62402 | -26.20658 | 32052 ft | 441 kts | 230° |
| 2026-04-19 13:18 | 41.58377 | -26.26871 | 32057 ft | 442 kts | 230° |
| 2026-04-19 13:18 | 41.54367 | -26.33046 | 32051 ft | 443 kts | 230° |
| 2026-04-19 13:19 | 41.50329 | -26.39268 | 32059 ft | 443 kts | 230° |
| 2026-04-19 13:19 | 41.46968 | -26.44440 | 32058 ft | 444 kts | 230° |
| 2026-04-19 13:20 | 41.42907 | -26.50667 | 32043 ft | 446 kts | 230° |
| 2026-04-19 13:20 | 41.38829 | -26.56886 | 32056 ft | 445 kts | 230° |
| 2026-04-19 13:21 | 41.34743 | -26.63111 | 32054 ft | 446 kts | 230° |
| 2026-04-19 13:21 | 41.30646 | -26.69346 | 32052 ft | 447 kts | 230° |
| 2026-04-19 13:22 | 41.26545 | -26.75569 | 32052 ft | 447 kts | 230° |
| 2026-04-19 13:22 | 41.22467 | -26.81755 | 32057 ft | 448 kts | 230° |
| 2026-04-19 13:23 | 41.18349 | -26.87990 | 32053 ft | 449 kts | 230° |
| 2026-04-19 13:23 | 41.14221 | -26.94223 | 32055 ft | 449 kts | 231° |
| 2026-04-19 13:24 | 41.10090 | -27.00451 | 32055 ft | 449 kts | 230° |
| 2026-04-19 13:24 | 41.05946 | -27.06678 | 32049 ft | 451 kts | 230° |
| 2026-04-19 13:25 | 41.01790 | -27.12909 | 32057 ft | 451 kts | 230° |
| 2026-04-19 13:25 | 40.97653 | -27.19104 | 32052 ft | 452 kts | 231° |
| 2026-04-19 13:26 | 40.93478 | -27.25338 | 32056 ft | 453 kts | 230° |
| 2026-04-19 13:26 | 40.89301 | -27.31572 | 32051 ft | 453 kts | 231° |
| 2026-04-19 13:27 | 40.85107 | -27.37818 | 32057 ft | 453 kts | 231° |
| 2026-04-19 13:27 | 40.80907 | -27.44059 | 32052 ft | 454 kts | 231° |
| 2026-04-19 13:28 | 40.76702 | -27.50292 | 32055 ft | 455 kts | 231° |
| 2026-04-19 13:28 | 40.72506 | -27.56500 | 32057 ft | 457 kts | 231° |
| 2026-04-19 13:29 | 40.68268 | -27.62754 | 32050 ft | 457 kts | 231° |
| 2026-04-19 13:29 | 40.64016 | -27.69019 | 32045 ft | 459 kts | 231° |
| 2026-04-19 13:30 | 40.59749 | -27.75289 | 32042 ft | 460 kts | 231° |
| 2026-04-19 13:31 | 40.53323 | -27.84705 | 32051 ft | 462 kts | 231° |
| 2026-04-19 13:31 | 40.49026 | -27.90996 | 32045 ft | 463 kts | 231° |
| 2026-04-19 13:32 | 40.44742 | -27.97252 | 32046 ft | 463 kts | 231° |
| 2026-04-19 13:32 | 40.40410 | -28.03555 | 32040 ft | 464 kts | 231° |
| 2026-04-19 13:33 | 40.36084 | -28.09835 | 32043 ft | 464 kts | 231° |
| 2026-04-19 13:33 | 40.31757 | -28.16117 | 32050 ft | 464 kts | 231° |
| 2026-04-19 13:34 | 40.27413 | -28.22396 | 32046 ft | 465 kts | 231° |
| 2026-04-19 13:34 | 40.23073 | -28.28674 | 32049 ft | 465 kts | 231° |
| 2026-04-19 13:35 | 40.18759 | -28.34896 | 32046 ft | 464 kts | 231° |
| 2026-04-19 13:35 | 40.14415 | -28.41153 | 32043 ft | 464 kts | 231° |
| 2026-04-19 13:36 | 40.10058 | -28.47389 | 32046 ft | 463 kts | 231° |
| 2026-04-19 13:36 | 40.05714 | -28.53613 | 32049 ft | 464 kts | 231° |
| 2026-04-19 13:37 | 40.01357 | -28.59839 | 32043 ft | 463 kts | 231° |
| 2026-04-19 13:37 | 39.97028 | -28.66006 | 32033 ft | 464 kts | 231° |
| 2026-04-19 13:38 | 39.92643 | -28.72247 | 32046 ft | 467 kts | 231° |
| 2026-04-19 13:38 | 39.88250 | -28.78481 | 32074 ft | 467 kts | 231° |
| 2026-04-19 13:39 | 39.83868 | -28.84719 | 32077 ft | 467 kts | 231° |
| 2026-04-19 13:39 | 39.79474 | -28.90946 | 32085 ft | 467 kts | 231° |
| 2026-04-19 13:40 | 39.75098 | -28.97114 | 32078 ft | 467 kts | 231° |
| 2026-04-19 13:40 | 39.70695 | -29.03310 | 32079 ft | 466 kts | 231° |
| 2026-04-19 13:41 | 39.66292 | -29.09504 | 32085 ft | 466 kts | 231° |
| 2026-04-19 13:41 | 39.61883 | -29.15694 | 32082 ft | 467 kts | 231° |
| 2026-04-19 13:42 | 39.57475 | -29.21873 | 32082 ft | 466 kts | 231° |
| 2026-04-19 13:42 | 39.53066 | -29.28044 | 32086 ft | 466 kts | 231° |
| 2026-04-19 13:43 | 39.48647 | -29.34203 | 32080 ft | 466 kts | 231° |
| 2026-04-19 13:43 | 39.44225 | -29.40347 | 32082 ft | 466 kts | 231° |
| 2026-04-19 13:44 | 39.39807 | -29.46486 | 32086 ft | 466 kts | 231° |
| 2026-04-19 13:44 | 39.35386 | -29.52617 | 32080 ft | 466 kts | 231° |
| 2026-04-19 13:45 | 39.30985 | -29.58710 | 32084 ft | 466 kts | 231° |
| 2026-04-19 13:45 | 39.26552 | -29.64838 | 32079 ft | 467 kts | 231° |
| 2026-04-19 13:46 | 39.22104 | -29.70970 | 32085 ft | 467 kts | 231° |
| 2026-04-19 13:46 | 39.17634 | -29.77100 | 32087 ft | 468 kts | 231° |
| 2026-04-19 13:47 | 39.13169 | -29.83225 | 32092 ft | 469 kts | 231° |
| 2026-04-19 13:47 | 39.08701 | -29.89356 | 32086 ft | 470 kts | 231° |
| 2026-04-19 13:48 | 39.04215 | -29.95489 | 32094 ft | 471 kts | 231° |
| 2026-04-19 13:48 | 38.99851 | -30.01681 | 32103 ft | 469 kts | 235° |
| 2026-04-19 13:49 | 38.95635 | -30.08107 | 32106 ft | 470 kts | 233° |
| 2026-04-19 13:49 | 38.91358 | -30.14475 | 32104 ft | 470 kts | 234° |
| 2026-04-19 13:50 | 38.87263 | -30.21028 | 32113 ft | 470 kts | 236° |
| 2026-04-19 13:50 | 38.83215 | -30.27622 | 32111 ft | 471 kts | 236° |
| 2026-04-19 13:51 | 38.79153 | -30.34227 | 32103 ft | 472 kts | 236° |
| 2026-04-19 13:51 | 38.75094 | -30.40836 | 32122 ft | 473 kts | 236° |
| 2026-04-19 13:52 | 38.71055 | -30.47422 | 32102 ft | 472 kts | 236° |
| 2026-04-19 13:52 | 38.66973 | -30.54033 | 32115 ft | 473 kts | 236° |
| 2026-04-19 13:53 | 38.62891 | -30.60634 | 32111 ft | 473 kts | 236° |
| 2026-04-19 13:53 | 38.58812 | -30.67232 | 32100 ft | 473 kts | 236° |
| 2026-04-19 13:54 | 38.54729 | -30.73829 | 32119 ft | 473 kts | 236° |
| 2026-04-19 13:54 | 38.50638 | -30.80414 | 32109 ft | 473 kts | 236° |
| 2026-04-19 13:55 | 38.46569 | -30.86951 | 32121 ft | 472 kts | 236° |
| 2026-04-19 13:55 | 38.42480 | -30.93516 | 32111 ft | 473 kts | 236° |
| 2026-04-19 13:56 | 38.38380 | -31.00068 | 32099 ft | 472 kts | 236° |
| 2026-04-19 13:56 | 38.34279 | -31.06620 | 32124 ft | 472 kts | 236° |
| 2026-04-19 13:57 | 38.30211 | -31.13121 | 32107 ft | 472 kts | 236° |
| 2026-04-19 13:57 | 38.26115 | -31.19639 | 32117 ft | 471 kts | 236° |
| 2026-04-19 13:58 | 38.22009 | -31.26159 | 32135 ft | 471 kts | 236° |
| 2026-04-19 13:58 | 38.17904 | -31.32661 | 32131 ft | 471 kts | 236° |
| 2026-04-19 13:59 | 38.13798 | -31.39163 | 32131 ft | 471 kts | 236° |
| 2026-04-19 13:59 | 38.09683 | -31.45656 | 32132 ft | 471 kts | 236° |
| 2026-04-19 14:00 | 38.05567 | -31.52133 | 32120 ft | 471 kts | 236° |
| 2026-04-19 14:00 | 38.01449 | -31.58608 | 32136 ft | 472 kts | 236° |
| 2026-04-19 14:01 | 37.97322 | -31.65082 | 32130 ft | 473 kts | 236° |
| 2026-04-19 14:01 | 37.93213 | -31.71520 | 32111 ft | 472 kts | 236° |
| 2026-04-19 14:02 | 37.89076 | -31.77987 | 32124 ft | 473 kts | 236° |
| 2026-04-19 14:02 | 37.84926 | -31.84453 | 32131 ft | 473 kts | 236° |
| 2026-04-19 14:03 | 37.81474 | -31.89833 | 32136 ft | 473 kts | 236° |
| 2026-04-19 14:03 | 37.77324 | -31.96283 | 32129 ft | 473 kts | 236° |
| 2026-04-19 14:04 | 37.73160 | -32.02740 | 32118 ft | 473 kts | 236° |
| 2026-04-19 14:04 | 37.68997 | -32.09181 | 32127 ft | 473 kts | 236° |
| 2026-04-19 14:05 | 37.64838 | -32.15618 | 32114 ft | 473 kts | 236° |
| 2026-04-19 14:05 | 37.60694 | -32.22006 | 32110 ft | 473 kts | 236° |
| 2026-04-19 14:06 | 37.56521 | -32.28421 | 32117 ft | 473 kts | 236° |
| 2026-04-19 14:06 | 37.52337 | -32.34851 | 32123 ft | 473 kts | 236° |
| 2026-04-19 14:07 | 37.48155 | -32.41260 | 32124 ft | 473 kts | 236° |
| 2026-04-19 14:07 | 37.43972 | -32.47658 | 32123 ft | 473 kts | 236° |
| 2026-04-19 14:08 | 37.39787 | -32.54054 | 32119 ft | 473 kts | 235° |
| 2026-04-19 14:08 | 37.35616 | -32.60407 | 32120 ft | 474 kts | 235° |
| 2026-04-19 14:09 | 37.31408 | -32.66800 | 32125 ft | 473 kts | 235° |
| 2026-04-19 14:09 | 37.27207 | -32.73193 | 32123 ft | 475 kts | 235° |
| 2026-04-19 14:10 | 37.22993 | -32.79571 | 32118 ft | 474 kts | 235° |
| 2026-04-19 14:10 | 37.18776 | -32.85935 | 32115 ft | 474 kts | 235° |
| 2026-04-19 14:11 | 37.14590 | -32.92260 | 32119 ft | 474 kts | 235° |
| 2026-04-19 14:11 | 37.10378 | -32.98616 | 32129 ft | 474 kts | 235° |
| 2026-04-19 14:12 | 37.06151 | -33.04981 | 32125 ft | 474 kts | 235° |
| 2026-04-19 14:12 | 37.01919 | -33.11319 | 32134 ft | 474 kts | 235° |
| 2026-04-19 14:13 | 36.97682 | -33.17651 | 32131 ft | 474 kts | 235° |
| 2026-04-19 14:13 | 36.93444 | -33.23984 | 32132 ft | 475 kts | 235° |
| 2026-04-19 14:14 | 36.89238 | -33.30269 | 32122 ft | 474 kts | 235° |
| 2026-04-19 14:14 | 36.85001 | -33.36594 | 32130 ft | 475 kts | 235° |
| 2026-04-19 14:15 | 36.80748 | -33.42928 | 32133 ft | 475 kts | 235° |
| 2026-04-19 14:15 | 36.76485 | -33.49259 | 32124 ft | 476 kts | 235° |
| 2026-04-19 14:16 | 36.72219 | -33.55565 | 32119 ft | 476 kts | 234° |
| 2026-04-19 14:16 | 36.67971 | -33.61822 | 32129 ft | 476 kts | 234° |
| 2026-04-19 14:17 | 36.63696 | -33.68125 | 32125 ft | 476 kts | 234° |
| 2026-04-19 14:17 | 36.59417 | -33.74429 | 32130 ft | 477 kts | 234° |
| 2026-04-19 14:18 | 36.55132 | -33.80731 | 32129 ft | 477 kts | 234° |
| 2026-04-19 14:18 | 36.50839 | -33.87029 | 32147 ft | 477 kts | 234° |
| 2026-04-19 14:19 | 36.46572 | -33.93281 | 32158 ft | 478 kts | 234° |
| 2026-04-19 14:19 | 36.42257 | -33.99575 | 32157 ft | 478 kts | 234° |
| 2026-04-19 14:20 | 36.37945 | -34.05871 | 32154 ft | 478 kts | 234° |
| 2026-04-19 14:20 | 36.33640 | -34.12153 | 32152 ft | 478 kts | 234° |
| 2026-04-19 14:21 | 36.29350 | -34.18388 | 32143 ft | 478 kts | 234° |
| 2026-04-19 14:21 | 36.25023 | -34.24666 | 32149 ft | 478 kts | 234° |
| 2026-04-19 14:22 | 36.20690 | -34.30934 | 32142 ft | 478 kts | 234° |
| 2026-04-19 14:22 | 36.16382 | -34.37160 | 32145 ft | 478 kts | 234° |
| 2026-04-19 14:23 | 36.12048 | -34.43404 | 32144 ft | 477 kts | 234° |
| 2026-04-19 14:23 | 36.07722 | -34.49627 | 32140 ft | 477 kts | 234° |
| 2026-04-19 14:24 | 36.03393 | -34.55859 | 32151 ft | 477 kts | 234° |
| 2026-04-19 14:24 | 35.99054 | -34.62079 | 32150 ft | 477 kts | 234° |
| 2026-04-19 14:25 | 35.94751 | -34.68244 | 32150 ft | 476 kts | 234° |
| 2026-04-19 14:25 | 35.90420 | -34.74436 | 32144 ft | 476 kts | 234° |
| 2026-04-19 14:26 | 35.86083 | -34.80610 | 32146 ft | 475 kts | 234° |
| 2026-04-19 14:26 | 35.81794 | -34.86729 | 32151 ft | 474 kts | 234° |
| 2026-04-19 14:27 | 35.77468 | -34.92879 | 32142 ft | 474 kts | 234° |
| 2026-04-19 14:27 | 35.73143 | -34.99006 | 32146 ft | 473 kts | 234° |
| 2026-04-19 14:28 | 35.68831 | -35.05115 | 32144 ft | 473 kts | 234° |
| 2026-04-19 14:28 | 35.64506 | -35.11224 | 32147 ft | 473 kts | 234° |
| 2026-04-19 14:29 | 35.60189 | -35.17321 | 32145 ft | 472 kts | 234° |
| 2026-04-19 14:29 | 35.55873 | -35.23404 | 32151 ft | 472 kts | 234° |
| 2026-04-19 14:30 | 35.51560 | -35.29472 | 32143 ft | 471 kts | 234° |
| 2026-04-19 14:30 | 35.47240 | -35.35533 | 32147 ft | 471 kts | 234° |
| 2026-04-19 14:31 | 35.42948 | -35.41538 | 32143 ft | 471 kts | 234° |
| 2026-04-19 14:31 | 35.38624 | -35.47582 | 32143 ft | 471 kts | 234° |
| 2026-04-19 14:32 | 35.34303 | -35.53611 | 32144 ft | 470 kts | 234° |
| 2026-04-19 14:32 | 35.29985 | -35.59641 | 32144 ft | 471 kts | 234° |
| 2026-04-19 14:33 | 35.25653 | -35.65671 | 32148 ft | 471 kts | 234° |
| 2026-04-19 14:33 | 35.21316 | -35.71690 | 32146 ft | 470 kts | 234° |
| 2026-04-19 14:34 | 35.17016 | -35.77650 | 32144 ft | 470 kts | 234° |
| 2026-04-19 14:34 | 35.12676 | -35.83652 | 32150 ft | 471 kts | 234° |
| 2026-04-19 14:35 | 35.06161 | -35.92657 | 32142 ft | 471 kts | 234° |
| 2026-04-19 14:35 | 35.01825 | -35.98654 | 32129 ft | 470 kts | 236° |
| 2026-04-19 14:36 | 34.97958 | -36.04967 | 32148 ft | 466 kts | 239° |
| 2026-04-19 14:36 | 34.94010 | -36.11270 | 32134 ft | 468 kts | 238° |
| 2026-04-19 14:37 | 34.90180 | -36.17668 | 32139 ft | 465 kts | 240° |
| 2026-04-19 14:37 | 34.86508 | -36.24158 | 32144 ft | 465 kts | 241° |
| 2026-04-19 14:38 | 34.82837 | -36.30640 | 32133 ft | 464 kts | 241° |
| 2026-04-19 14:38 | 34.79203 | -36.37075 | 32138 ft | 465 kts | 241° |
| 2026-04-19 14:39 | 34.75540 | -36.43558 | 32133 ft | 464 kts | 241° |
| 2026-04-19 14:39 | 34.71874 | -36.50025 | 32136 ft | 464 kts | 241° |
| 2026-04-19 14:40 | 34.68206 | -36.56493 | 32138 ft | 465 kts | 241° |
| 2026-04-19 14:40 | 34.64527 | -36.62970 | 32138 ft | 465 kts | 241° |
| 2026-04-19 14:41 | 34.60852 | -36.69430 | 32144 ft | 465 kts | 241° |
| 2026-04-19 14:41 | 34.57171 | -36.75887 | 32137 ft | 465 kts | 240° |
| 2026-04-19 14:42 | 34.53485 | -36.82341 | 32145 ft | 466 kts | 240° |
| 2026-04-19 14:42 | 34.49816 | -36.88756 | 32132 ft | 465 kts | 240° |
| 2026-04-19 14:43 | 34.46122 | -36.95199 | 32142 ft | 465 kts | 240° |
| 2026-04-19 14:43 | 34.42425 | -37.01631 | 32141 ft | 465 kts | 240° |
| 2026-04-19 14:44 | 34.38727 | -37.08068 | 32140 ft | 465 kts | 240° |
| 2026-04-19 14:44 | 34.35019 | -37.14491 | 32137 ft | 465 kts | 240° |
| 2026-04-19 14:45 | 34.31310 | -37.20931 | 32144 ft | 466 kts | 240° |
| 2026-04-19 14:45 | 34.27620 | -37.27319 | 32133 ft | 466 kts | 240° |
| 2026-04-19 14:46 | 34.23900 | -37.33742 | 32142 ft | 466 kts | 240° |
| 2026-04-19 14:46 | 34.20173 | -37.40165 | 32136 ft | 467 kts | 240° |
| 2026-04-19 14:47 | 34.16439 | -37.46587 | 32138 ft | 467 kts | 240° |
| 2026-04-19 14:47 | 34.12721 | -37.52975 | 32132 ft | 468 kts | 239° |
| 2026-04-19 14:48 | 34.08973 | -37.59401 | 32143 ft | 468 kts | 239° |
| 2026-04-19 14:48 | 34.05218 | -37.65823 | 32134 ft | 468 kts | 239° |
| 2026-04-19 14:49 | 34.02092 | -37.71158 | 32130 ft | 468 kts | 239° |
| 2026-04-19 14:49 | 33.98336 | -37.77559 | 32131 ft | 468 kts | 239° |
| 2026-04-19 14:50 | 33.94566 | -37.83976 | 32138 ft | 468 kts | 239° |
| 2026-04-19 14:50 | 33.90821 | -37.90344 | 32145 ft | 468 kts | 239° |
| 2026-04-19 14:51 | 33.87050 | -37.96745 | 32131 ft | 469 kts | 239° |
| 2026-04-19 14:51 | 33.83278 | -38.03143 | 32140 ft | 469 kts | 239° |
| 2026-04-19 14:52 | 33.79489 | -38.09541 | 32137 ft | 469 kts | 239° |
| 2026-04-19 14:52 | 33.75705 | -38.15928 | 32129 ft | 469 kts | 239° |
| 2026-04-19 14:53 | 33.71940 | -38.22270 | 32153 ft | 469 kts | 239° |
| 2026-04-19 14:53 | 33.70052 | -38.25442 | 32486 ft | 460 kts | 239° |
| 2026-04-19 14:53 | 33.68203 | -38.28541 | 32914 ft | 454 kts | 239° |
| 2026-04-19 14:54 | 33.66362 | -38.31630 | 33375 ft | 456 kts | 239° |
| 2026-04-19 14:54 | 33.64506 | -38.34750 | 33836 ft | 462 kts | 239° |
| 2026-04-19 14:54 | 33.62625 | -38.37913 | 34283 ft | 466 kts | 239° |
| 2026-04-19 14:54 | 33.60757 | -38.41047 | 34739 ft | 469 kts | 239° |
| 2026-04-19 14:55 | 33.58850 | -38.44245 | 35181 ft | 472 kts | 239° |
| 2026-04-19 14:55 | 33.56927 | -38.47463 | 35642 ft | 475 kts | 239° |
| 2026-04-19 14:55 | 33.54998 | -38.50686 | 35920 ft | 476 kts | 238° |
| 2026-04-19 14:55 | 33.53060 | -38.53919 | 36089 ft | 476 kts | 238° |
| 2026-04-19 14:56 | 33.49186 | -38.60370 | 36149 ft | 477 kts | 238° |
| 2026-04-19 14:56 | 33.45333 | -38.66790 | 36149 ft | 478 kts | 238° |
| 2026-04-19 14:57 | 33.41439 | -38.73266 | 36159 ft | 478 kts | 238° |
| 2026-04-19 14:57 | 33.37537 | -38.79735 | 36156 ft | 478 kts | 238° |
| 2026-04-19 14:58 | 33.33662 | -38.86151 | 36153 ft | 479 kts | 238° |
| 2026-04-19 14:58 | 33.29753 | -38.92611 | 36158 ft | 479 kts | 238° |
| 2026-04-19 14:59 | 33.25835 | -38.99068 | 36160 ft | 479 kts | 238° |
| 2026-04-19 14:59 | 33.21918 | -39.05521 | 36152 ft | 480 kts | 238° |
| 2026-04-19 15:00 | 33.17993 | -39.11979 | 36158 ft | 480 kts | 238° |
| 2026-04-19 15:00 | 33.14066 | -39.18430 | 36155 ft | 480 kts | 237° |
| 2026-04-19 15:01 | 33.10144 | -39.24847 | 36152 ft | 480 kts | 237° |
| 2026-04-19 15:01 | 33.06202 | -39.31290 | 36158 ft | 481 kts | 237° |
| 2026-04-19 15:02 | 33.02257 | -39.37734 | 36153 ft | 481 kts | 237° |
| 2026-04-19 15:02 | 32.98304 | -39.44176 | 36158 ft | 481 kts | 237° |
| 2026-04-19 15:03 | 32.94350 | -39.50617 | 36154 ft | 482 kts | 237° |
| 2026-04-19 15:03 | 32.90387 | -39.57048 | 36155 ft | 482 kts | 237° |
| 2026-04-19 15:04 | 32.86453 | -39.63423 | 36158 ft | 481 kts | 237° |
| 2026-04-19 15:04 | 32.82492 | -39.69840 | 36153 ft | 481 kts | 237° |
| 2026-04-19 15:05 | 32.78527 | -39.76248 | 36154 ft | 481 kts | 237° |
| 2026-04-19 15:05 | 32.74549 | -39.82665 | 36156 ft | 482 kts | 237° |
| 2026-04-19 15:06 | 32.70567 | -39.89069 | 36153 ft | 482 kts | 236° |
| 2026-04-19 15:06 | 32.66588 | -39.95466 | 36157 ft | 482 kts | 236° |
| 2026-04-19 15:07 | 32.62602 | -40.01869 | 36154 ft | 483 kts | 236° |
| 2026-04-19 15:07 | 32.58628 | -40.08235 | 36151 ft | 483 kts | 236° |
| 2026-04-19 15:08 | 32.54617 | -40.14645 | 36157 ft | 483 kts | 236° |
| 2026-04-19 15:08 | 32.50611 | -40.21043 | 36159 ft | 483 kts | 236° |
| 2026-04-19 15:09 | 32.46601 | -40.27437 | 36154 ft | 484 kts | 236° |
| 2026-04-19 15:09 | 32.42577 | -40.33832 | 36155 ft | 484 kts | 236° |
| 2026-04-19 15:10 | 32.38560 | -40.40215 | 36158 ft | 484 kts | 236° |
| 2026-04-19 15:10 | 32.34565 | -40.46553 | 36152 ft | 484 kts | 236° |
| 2026-04-19 15:11 | 32.30534 | -40.52930 | 36156 ft | 484 kts | 236° |
| 2026-04-19 15:11 | 32.26495 | -40.59315 | 36154 ft | 484 kts | 236° |
| 2026-04-19 15:12 | 32.22469 | -40.65676 | 36155 ft | 484 kts | 236° |
| 2026-04-19 15:12 | 32.18455 | -40.71999 | 36159 ft | 484 kts | 236° |
| 2026-04-19 15:13 | 32.14402 | -40.78363 | 36150 ft | 484 kts | 235° |
| 2026-04-19 15:13 | 32.10355 | -40.84716 | 36156 ft | 484 kts | 236° |
| 2026-04-19 15:14 | 32.06308 | -40.91061 | 36157 ft | 484 kts | 235° |
| 2026-04-19 15:14 | 32.02244 | -40.97398 | 36144 ft | 485 kts | 233° |
| 2026-04-19 15:15 | 31.97447 | -41.02949 | 36170 ft | 490 kts | 222° |
| 2026-04-19 15:15 | 31.92237 | -41.08152 | 36148 ft | 490 kts | 224° |
| 2026-04-19 15:16 | 31.87176 | -41.13519 | 36142 ft | 490 kts | 224° |
| 2026-04-19 15:16 | 31.82112 | -41.18886 | 36152 ft | 490 kts | 224° |
| 2026-04-19 15:17 | 31.77061 | -41.24189 | 36145 ft | 490 kts | 224° |
| 2026-04-19 15:17 | 31.71978 | -41.29540 | 36147 ft | 490 kts | 224° |
| 2026-04-19 15:18 | 31.66901 | -41.34872 | 36152 ft | 490 kts | 224° |
| 2026-04-19 15:18 | 31.61805 | -41.40211 | 36135 ft | 490 kts | 224° |
| 2026-04-19 15:19 | 31.56721 | -41.45537 | 36147 ft | 490 kts | 224° |
| 2026-04-19 15:19 | 31.51632 | -41.50859 | 36146 ft | 490 kts | 224° |
| 2026-04-19 15:20 | 31.46535 | -41.56179 | 36144 ft | 490 kts | 224° |
| 2026-04-19 15:20 | 31.41466 | -41.61462 | 36153 ft | 490 kts | 224° |
| 2026-04-19 15:21 | 31.36365 | -41.66765 | 36145 ft | 490 kts | 224° |
| 2026-04-19 15:21 | 31.31261 | -41.72068 | 36147 ft | 490 kts | 224° |
| 2026-04-19 15:22 | 31.26156 | -41.77365 | 36150 ft | 490 kts | 224° |
| 2026-04-19 15:22 | 31.21048 | -41.82651 | 36139 ft | 490 kts | 223° |
| 2026-04-19 15:23 | 31.15932 | -41.87951 | 36148 ft | 490 kts | 223° |
| 2026-04-19 15:23 | 31.10851 | -41.93197 | 36133 ft | 491 kts | 223° |
| 2026-04-19 15:24 | 31.05736 | -41.98471 | 36130 ft | 491 kts | 223° |
| 2026-04-19 15:24 | 31.00620 | -42.03739 | 36148 ft | 491 kts | 223° |
| 2026-04-19 15:25 | 30.95496 | -42.09009 | 36125 ft | 491 kts | 223° |
| 2026-04-19 15:25 | 30.90368 | -42.14271 | 36136 ft | 491 kts | 223° |
| 2026-04-19 15:26 | 30.85268 | -42.19496 | 36145 ft | 491 kts | 223° |
| 2026-04-19 15:26 | 30.80139 | -42.24746 | 36129 ft | 491 kts | 223° |
| 2026-04-19 15:27 | 30.75006 | -42.29993 | 36147 ft | 491 kts | 223° |
| 2026-04-19 15:27 | 30.69875 | -42.35231 | 36132 ft | 491 kts | 223° |
| 2026-04-19 15:28 | 30.64736 | -42.40473 | 36126 ft | 491 kts | 223° |
| 2026-04-19 15:28 | 30.59595 | -42.45699 | 36147 ft | 490 kts | 223° |
| 2026-04-19 15:29 | 30.54456 | -42.50919 | 36147 ft | 490 kts | 223° |
| 2026-04-19 15:29 | 30.49352 | -42.56098 | 36127 ft | 490 kts | 222° |
| 2026-04-19 15:30 | 30.44209 | -42.61308 | 36134 ft | 491 kts | 222° |
| 2026-04-19 15:30 | 30.39073 | -42.66513 | 36146 ft | 490 kts | 222° |
| 2026-04-19 15:31 | 30.33914 | -42.71719 | 36123 ft | 491 kts | 222° |
| 2026-04-19 15:31 | 30.28766 | -42.76898 | 36137 ft | 490 kts | 222° |
| 2026-04-19 15:32 | 30.23655 | -42.82049 | 36148 ft | 490 kts | 222° |
| 2026-04-19 15:32 | 30.18505 | -42.87234 | 36127 ft | 490 kts | 222° |
| 2026-04-19 15:33 | 30.13348 | -42.92411 | 36128 ft | 490 kts | 222° |
| 2026-04-19 15:33 | 30.08235 | -42.97544 | 36147 ft | 489 kts | 222° |
| 2026-04-19 15:34 | 30.03088 | -43.02695 | 36125 ft | 489 kts | 222° |
| 2026-04-19 15:34 | 29.97945 | -43.07840 | 36132 ft | 488 kts | 222° |
| 2026-04-19 15:35 | 29.92822 | -43.12955 | 36147 ft | 487 kts | 222° |
| 2026-04-19 15:35 | 29.88566 | -43.17200 | 36143 ft | 487 kts | 222° |
| 2026-04-19 15:36 | 29.83450 | -43.22306 | 36135 ft | 487 kts | 222° |
| 2026-04-19 15:36 | 29.78320 | -43.27406 | 36147 ft | 486 kts | 222° |
| 2026-04-19 15:37 | 29.73192 | -43.32486 | 36131 ft | 487 kts | 222° |
| 2026-04-19 15:37 | 29.68055 | -43.37577 | 36130 ft | 486 kts | 222° |
| 2026-04-19 15:38 | 29.62967 | -43.42626 | 36147 ft | 486 kts | 222° |
| 2026-04-19 15:38 | 29.57840 | -43.47699 | 36130 ft | 486 kts | 222° |
| 2026-04-19 15:39 | 29.52717 | -43.52758 | 36123 ft | 486 kts | 222° |
| 2026-04-19 15:39 | 29.47589 | -43.57816 | 36147 ft | 486 kts | 222° |
| 2026-04-19 15:40 | 29.42460 | -43.62876 | 36128 ft | 486 kts | 222° |
| 2026-04-19 15:40 | 29.37331 | -43.67918 | 36141 ft | 485 kts | 222° |
| 2026-04-19 15:41 | 29.32230 | -43.72923 | 36129 ft | 485 kts | 222° |
| 2026-04-19 15:41 | 29.27092 | -43.77960 | 36121 ft | 485 kts | 222° |
| 2026-04-19 15:42 | 29.21959 | -43.82985 | 36129 ft | 485 kts | 222° |
| 2026-04-19 15:42 | 29.16825 | -43.88005 | 36119 ft | 485 kts | 222° |
| 2026-04-19 15:43 | 29.11732 | -43.92982 | 36133 ft | 484 kts | 222° |
| 2026-04-19 15:44 | 29.04035 | -44.00487 | 36126 ft | 484 kts | 222° |
| 2026-04-19 15:44 | 28.98911 | -44.05478 | 36130 ft | 484 kts | 222° |
| 2026-04-19 15:45 | 28.93785 | -44.10464 | 36122 ft | 483 kts | 222° |
| 2026-04-19 15:45 | 28.88693 | -44.15409 | 36129 ft | 483 kts | 222° |
| 2026-04-19 15:46 | 28.83575 | -44.20369 | 36130 ft | 483 kts | 222° |
| 2026-04-19 15:46 | 28.78453 | -44.25328 | 36126 ft | 482 kts | 222° |
| 2026-04-19 15:47 | 28.73330 | -44.30281 | 36128 ft | 482 kts | 222° |
| 2026-04-19 15:47 | 28.68209 | -44.35230 | 36124 ft | 482 kts | 222° |
| 2026-04-19 15:48 | 28.63128 | -44.40129 | 36104 ft | 482 kts | 222° |
| 2026-04-19 15:48 | 28.58006 | -44.45056 | 36100 ft | 481 kts | 222° |
| 2026-04-19 15:49 | 28.52892 | -44.49979 | 36104 ft | 481 kts | 222° |
| 2026-04-19 15:49 | 28.47773 | -44.54898 | 36096 ft | 481 kts | 222° |
| 2026-04-19 15:50 | 28.42653 | -44.59807 | 36103 ft | 481 kts | 222° |
| 2026-04-19 15:50 | 28.37566 | -44.64681 | 36102 ft | 481 kts | 222° |
| 2026-04-19 15:51 | 28.32447 | -44.69578 | 36097 ft | 481 kts | 222° |
| 2026-04-19 15:51 | 28.27330 | -44.74468 | 36099 ft | 481 kts | 222° |
| 2026-04-19 15:52 | 28.22213 | -44.79355 | 36101 ft | 481 kts | 222° |
| 2026-04-19 15:52 | 28.17094 | -44.84236 | 36097 ft | 481 kts | 222° |
| 2026-04-19 15:53 | 28.11976 | -44.89107 | 36103 ft | 481 kts | 222° |
| 2026-04-19 15:53 | 28.06845 | -44.93980 | 36097 ft | 480 kts | 222° |
| 2026-04-19 15:54 | 28.01752 | -44.98809 | 36099 ft | 480 kts | 221° |
| 2026-04-19 15:54 | 27.96417 | -45.03380 | 36107 ft | 478 kts | 218° |
| 2026-04-19 15:55 | 27.90971 | -45.07679 | 36100 ft | 476 kts | 219° |
| 2026-04-19 15:55 | 27.85632 | -45.12112 | 36100 ft | 476 kts | 220° |
| 2026-04-19 15:56 | 27.80323 | -45.16575 | 36100 ft | 476 kts | 220° |
| 2026-04-19 15:56 | 27.75018 | -45.21028 | 36101 ft | 475 kts | 220° |
| 2026-04-19 15:57 | 27.69742 | -45.25455 | 36097 ft | 475 kts | 220° |
| 2026-04-19 15:57 | 27.64434 | -45.29910 | 36103 ft | 475 kts | 220° |
| 2026-04-19 15:58 | 27.59131 | -45.34346 | 36100 ft | 475 kts | 220° |
| 2026-04-19 15:58 | 27.53834 | -45.38784 | 36104 ft | 474 kts | 220° |
| 2026-04-19 15:59 | 27.48532 | -45.43214 | 36103 ft | 474 kts | 220° |
| 2026-04-19 15:59 | 27.43240 | -45.47637 | 36099 ft | 473 kts | 220° |
| 2026-04-19 16:00 | 27.37981 | -45.52023 | 36103 ft | 473 kts | 220° |
| 2026-04-19 16:00 | 27.32693 | -45.56426 | 36088 ft | 472 kts | 220° |
| 2026-04-19 16:01 | 27.27411 | -45.60818 | 36089 ft | 472 kts | 220° |
| 2026-04-19 16:01 | 27.22138 | -45.65197 | 36094 ft | 471 kts | 220° |
| 2026-04-19 16:02 | 27.16871 | -45.69570 | 36091 ft | 470 kts | 220° |
| 2026-04-19 16:02 | 27.11605 | -45.73938 | 36091 ft | 470 kts | 220° |
| 2026-04-19 16:03 | 27.06353 | -45.78289 | 36092 ft | 468 kts | 220° |
| 2026-04-19 16:03 | 27.01140 | -45.82594 | 36092 ft | 467 kts | 220° |
| 2026-04-19 16:04 | 26.95907 | -45.86915 | 36092 ft | 467 kts | 221° |
| 2026-04-19 16:04 | 26.90688 | -45.91222 | 36093 ft | 465 kts | 221° |
| 2026-04-19 16:05 | 26.85478 | -45.95515 | 36092 ft | 463 kts | 221° |
| 2026-04-19 16:05 | 26.80286 | -45.99787 | 36090 ft | 462 kts | 221° |
| 2026-04-19 16:06 | 26.75110 | -46.04045 | 36089 ft | 461 kts | 221° |
| 2026-04-19 16:06 | 26.69936 | -46.08291 | 36094 ft | 460 kts | 221° |
| 2026-04-19 16:07 | 26.64775 | -46.12525 | 36090 ft | 460 kts | 221° |
| 2026-04-19 16:07 | 26.59651 | -46.16716 | 36092 ft | 459 kts | 221° |
| 2026-04-19 16:08 | 26.54502 | -46.20931 | 36087 ft | 458 kts | 221° |
| 2026-04-19 16:08 | 26.49365 | -46.25134 | 36090 ft | 457 kts | 221° |
| 2026-04-19 16:09 | 26.44227 | -46.29329 | 36088 ft | 457 kts | 221° |
| 2026-04-19 16:09 | 26.39098 | -46.33513 | 36091 ft | 457 kts | 221° |
| 2026-04-19 16:10 | 26.33950 | -46.37708 | 36094 ft | 457 kts | 221° |
| 2026-04-19 16:10 | 26.28852 | -46.41859 | 36089 ft | 456 kts | 221° |
| 2026-04-19 16:11 | 26.23718 | -46.46034 | 36090 ft | 456 kts | 221° |
| 2026-04-19 16:11 | 26.18583 | -46.50198 | 36091 ft | 456 kts | 221° |
| 2026-04-19 16:12 | 26.13473 | -46.54340 | 36090 ft | 457 kts | 221° |
| 2026-04-19 16:12 | 26.08327 | -46.58509 | 36090 ft | 457 kts | 221° |
| 2026-04-19 16:13 | 26.03176 | -46.62671 | 36091 ft | 457 kts | 221° |
| 2026-04-19 16:13 | 25.98031 | -46.66827 | 36089 ft | 456 kts | 222° |
| 2026-04-19 16:14 | 25.92924 | -46.70948 | 36089 ft | 452 kts | 222° |
| 2026-04-19 16:14 | 25.87867 | -46.75027 | 36089 ft | 452 kts | 222° |
| 2026-04-19 16:15 | 25.82771 | -46.79137 | 36090 ft | 452 kts | 222° |
| 2026-04-19 16:15 | 25.77676 | -46.83246 | 36093 ft | 452 kts | 222° |
| 2026-04-19 16:16 | 25.72568 | -46.87342 | 36091 ft | 452 kts | 222° |
| 2026-04-19 16:16 | 25.67483 | -46.91426 | 36090 ft | 451 kts | 222° |
| 2026-04-19 16:17 | 25.62432 | -46.95481 | 36093 ft | 451 kts | 222° |
| 2026-04-19 16:17 | 25.57349 | -46.99553 | 36092 ft | 451 kts | 221° |
| 2026-04-19 16:18 | 25.52262 | -47.03626 | 36087 ft | 451 kts | 221° |
| 2026-04-19 16:18 | 25.47171 | -47.07699 | 36086 ft | 451 kts | 222° |
| 2026-04-19 16:19 | 25.42073 | -47.11770 | 36081 ft | 451 kts | 221° |
| 2026-04-19 16:19 | 25.36973 | -47.15832 | 36081 ft | 451 kts | 221° |
| 2026-04-19 16:20 | 25.31875 | -47.19886 | 36086 ft | 451 kts | 222° |
| 2026-04-19 16:20 | 25.26826 | -47.23907 | 36079 ft | 450 kts | 221° |
| 2026-04-19 16:21 | 25.21746 | -47.27947 | 36081 ft | 450 kts | 221° |
| 2026-04-19 16:21 | 25.16668 | -47.31978 | 36089 ft | 449 kts | 221° |
| 2026-04-19 16:22 | 25.11602 | -47.36004 | 36086 ft | 448 kts | 222° |
| 2026-04-19 16:22 | 25.07390 | -47.39344 | 36081 ft | 448 kts | 222° |
| 2026-04-19 16:23 | 25.01509 | -47.44004 | 36080 ft | 448 kts | 222° |
| 2026-04-19 16:23 | 24.97298 | -47.47334 | 36086 ft | 448 kts | 222° |
| 2026-04-19 16:24 | 24.92240 | -47.51331 | 36081 ft | 447 kts | 222° |
| 2026-04-19 16:24 | 24.87196 | -47.55320 | 36080 ft | 446 kts | 222° |
| 2026-04-19 16:25 | 24.82152 | -47.59301 | 36080 ft | 445 kts | 222° |
| 2026-04-19 16:25 | 24.77110 | -47.63260 | 36089 ft | 445 kts | 222° |
| 2026-04-19 16:26 | 24.72081 | -47.67219 | 36083 ft | 444 kts | 223° |
| 2026-04-19 16:26 | 24.67052 | -47.71178 | 36084 ft | 443 kts | 222° |
| 2026-04-19 16:27 | 24.62042 | -47.75111 | 36077 ft | 442 kts | 223° |
| 2026-04-19 16:27 | 24.57075 | -47.79019 | 36071 ft | 441 kts | 223° |
| 2026-04-19 16:28 | 24.52071 | -47.82933 | 36082 ft | 441 kts | 223° |
| 2026-04-19 16:28 | 24.47078 | -47.86842 | 36077 ft | 440 kts | 223° |
| 2026-04-19 16:29 | 24.42089 | -47.90740 | 36073 ft | 440 kts | 223° |
| 2026-04-19 16:29 | 24.37110 | -47.94630 | 36077 ft | 439 kts | 223° |
| 2026-04-19 16:30 | 24.32163 | -47.98494 | 36078 ft | 438 kts | 223° |
| 2026-04-19 16:30 | 24.27188 | -48.02373 | 36086 ft | 438 kts | 223° |
| 2026-04-19 16:31 | 24.22224 | -48.06258 | 36076 ft | 438 kts | 223° |
| 2026-04-19 16:31 | 24.17267 | -48.10123 | 36084 ft | 438 kts | 223° |
| 2026-04-19 16:32 | 24.12292 | -48.13980 | 36086 ft | 438 kts | 223° |
| 2026-04-19 16:32 | 24.07321 | -48.17844 | 36079 ft | 438 kts | 223° |
| 2026-04-19 16:33 | 24.02391 | -48.21674 | 36081 ft | 438 kts | 223° |
| 2026-04-19 16:33 | 23.97426 | -48.25529 | 36076 ft | 437 kts | 223° |
| 2026-04-19 16:34 | 23.92450 | -48.29380 | 36080 ft | 438 kts | 223° |
| 2026-04-19 16:34 | 23.87485 | -48.33221 | 36090 ft | 437 kts | 223° |
| 2026-04-19 16:35 | 23.82527 | -48.37045 | 36086 ft | 436 kts | 223° |
| 2026-04-19 16:35 | 23.77568 | -48.40883 | 36077 ft | 436 kts | 223° |
| 2026-04-19 16:36 | 23.72636 | -48.44688 | 36087 ft | 436 kts | 223° |
| 2026-04-19 16:36 | 23.67685 | -48.48506 | 36085 ft | 435 kts | 223° |
| 2026-04-19 16:37 | 23.62736 | -48.52318 | 36077 ft | 434 kts | 223° |
| 2026-04-19 16:37 | 23.57793 | -48.56122 | 36084 ft | 434 kts | 223° |
| 2026-04-19 16:38 | 23.52858 | -48.59914 | 36086 ft | 433 kts | 223° |
| 2026-04-19 16:38 | 23.47929 | -48.63704 | 36078 ft | 434 kts | 223° |
| 2026-04-19 16:39 | 23.43021 | -48.67468 | 36083 ft | 433 kts | 223° |
| 2026-04-19 16:39 | 23.38093 | -48.71251 | 36080 ft | 433 kts | 223° |
| 2026-04-19 16:40 | 23.33171 | -48.75025 | 36085 ft | 433 kts | 223° |
| 2026-04-19 16:40 | 23.28251 | -48.78787 | 36084 ft | 432 kts | 223° |
| 2026-04-19 16:41 | 23.23371 | -48.82515 | 36082 ft | 431 kts | 222° |
| 2026-04-19 16:41 | 23.18460 | -48.86255 | 36081 ft | 431 kts | 222° |
| 2026-04-19 16:42 | 23.13543 | -48.90008 | 36087 ft | 431 kts | 222° |
| 2026-04-19 16:42 | 23.08638 | -48.93760 | 36077 ft | 431 kts | 222° |
| 2026-04-19 16:43 | 23.03732 | -48.97493 | 36083 ft | 430 kts | 222° |
| 2026-04-19 16:43 | 22.99081 | -49.01510 | 36086 ft | 424 kts | 229° |
| 2026-04-19 16:44 | 22.94777 | -49.05824 | 36087 ft | 424 kts | 228° |
| 2026-04-19 16:44 | 22.90383 | -49.10093 | 36083 ft | 423 kts | 229° |
| 2026-04-19 16:45 | 22.86109 | -49.14463 | 36076 ft | 422 kts | 230° |
| 2026-04-19 16:45 | 22.81862 | -49.18858 | 36080 ft | 422 kts | 230° |
| 2026-04-19 16:46 | 22.77607 | -49.23264 | 36088 ft | 422 kts | 229° |
| 2026-04-19 16:46 | 22.73390 | -49.27626 | 36080 ft | 421 kts | 229° |
| 2026-04-19 16:47 | 22.69148 | -49.32012 | 36085 ft | 421 kts | 229° |
| 2026-04-19 16:47 | 22.64904 | -49.36398 | 36082 ft | 421 kts | 229° |
| 2026-04-19 16:48 | 22.60677 | -49.40771 | 36083 ft | 420 kts | 229° |
| 2026-04-19 16:48 | 22.56446 | -49.45138 | 36087 ft | 420 kts | 229° |
| 2026-04-19 16:49 | 22.52216 | -49.49497 | 36082 ft | 420 kts | 229° |
| 2026-04-19 16:49 | 22.47993 | -49.53842 | 36078 ft | 418 kts | 229° |
| 2026-04-19 16:50 | 22.43812 | -49.58157 | 36081 ft | 418 kts | 229° |
| 2026-04-19 16:50 | 22.39597 | -49.62496 | 36078 ft | 418 kts | 229° |
| 2026-04-19 16:51 | 22.35378 | -49.66828 | 36080 ft | 417 kts | 229° |
| 2026-04-19 16:51 | 22.31169 | -49.71145 | 36082 ft | 416 kts | 229° |
| 2026-04-19 16:52 | 22.26963 | -49.75462 | 36074 ft | 417 kts | 229° |
| 2026-04-19 16:52 | 22.22782 | -49.79747 | 36073 ft | 417 kts | 229° |
| 2026-04-19 16:53 | 22.18582 | -49.84053 | 36063 ft | 416 kts | 229° |
| 2026-04-19 16:53 | 22.14373 | -49.88353 | 36073 ft | 416 kts | 229° |
| 2026-04-19 16:54 | 22.10169 | -49.92657 | 36069 ft | 416 kts | 229° |
| 2026-04-19 16:54 | 22.05963 | -49.96958 | 36070 ft | 416 kts | 229° |
| 2026-04-19 16:55 | 22.01757 | -50.01249 | 36074 ft | 416 kts | 229° |
| 2026-04-19 16:55 | 21.95442 | -50.07675 | 36074 ft | 416 kts | 229° |
| 2026-04-19 16:56 | 21.91258 | -50.11937 | 36073 ft | 416 kts | 229° |
| 2026-04-19 16:56 | 21.87041 | -50.16235 | 36074 ft | 416 kts | 229° |
| 2026-04-19 16:57 | 21.82826 | -50.20527 | 36072 ft | 416 kts | 229° |
| 2026-04-19 16:57 | 21.78613 | -50.24803 | 36072 ft | 416 kts | 229° |
| 2026-04-19 16:58 | 21.74420 | -50.29056 | 36073 ft | 416 kts | 229° |
| 2026-04-19 16:58 | 21.70201 | -50.33329 | 36078 ft | 417 kts | 228° |
| 2026-04-19 16:59 | 21.65981 | -50.37603 | 36074 ft | 417 kts | 228° |
| 2026-04-19 16:59 | 21.61761 | -50.41876 | 36074 ft | 416 kts | 229° |
| 2026-04-19 17:00 | 21.57546 | -50.46148 | 36070 ft | 417 kts | 228° |
| 2026-04-19 17:00 | 21.53314 | -50.50423 | 36076 ft | 416 kts | 228° |
| 2026-04-19 17:01 | 21.49092 | -50.54686 | 36078 ft | 417 kts | 228° |
| 2026-04-19 17:01 | 21.44899 | -50.58922 | 36070 ft | 417 kts | 228° |
| 2026-04-19 17:02 | 21.40674 | -50.63180 | 36075 ft | 417 kts | 228° |
| 2026-04-19 17:02 | 21.36443 | -50.67448 | 36073 ft | 417 kts | 228° |
| 2026-04-19 17:03 | 21.32206 | -50.71704 | 36077 ft | 417 kts | 228° |
| 2026-04-19 17:03 | 21.27969 | -50.75964 | 36068 ft | 417 kts | 228° |
| 2026-04-19 17:04 | 21.23723 | -50.80231 | 36067 ft | 418 kts | 228° |
| 2026-04-19 17:04 | 21.19504 | -50.84467 | 36067 ft | 417 kts | 227° |
| 2026-04-19 17:05 | 21.15256 | -50.88726 | 36068 ft | 418 kts | 227° |
| 2026-04-19 17:05 | 21.11018 | -50.92976 | 36054 ft | 418 kts | 227° |
| 2026-04-19 17:06 | 21.06763 | -50.97237 | 36069 ft | 418 kts | 227° |
| 2026-04-19 17:06 | 21.02513 | -51.01489 | 36062 ft | 418 kts | 227° |
| 2026-04-19 17:07 | 20.98279 | -51.05721 | 36065 ft | 418 kts | 227° |
| 2026-04-19 17:07 | 20.94024 | -51.09970 | 36065 ft | 419 kts | 227° |
| 2026-04-19 17:08 | 20.89756 | -51.14231 | 36061 ft | 419 kts | 227° |
| 2026-04-19 17:08 | 20.85519 | -51.18457 | 36060 ft | 418 kts | 227° |
| 2026-04-19 17:09 | 20.81260 | -51.22701 | 36070 ft | 418 kts | 227° |
| 2026-04-19 17:09 | 20.77692 | -51.26252 | 36066 ft | 418 kts | 227° |
| 2026-04-19 17:10 | 20.73459 | -51.30467 | 36065 ft | 418 kts | 227° |
| 2026-04-19 17:10 | 20.69197 | -51.34707 | 36068 ft | 419 kts | 227° |
| 2026-04-19 17:11 | 20.64927 | -51.38950 | 36065 ft | 419 kts | 227° |
| 2026-04-19 17:11 | 20.60655 | -51.43191 | 36065 ft | 419 kts | 227° |
| 2026-04-19 17:12 | 20.56381 | -51.47430 | 36062 ft | 419 kts | 227° |
| 2026-04-19 17:12 | 20.52110 | -51.51664 | 36065 ft | 420 kts | 227° |
| 2026-04-19 17:13 | 20.47831 | -51.55904 | 36067 ft | 420 kts | 226° |
| 2026-04-19 17:13 | 20.43549 | -51.60137 | 36062 ft | 419 kts | 226° |
| 2026-04-19 17:14 | 20.39268 | -51.64367 | 36058 ft | 419 kts | 226° |
| 2026-04-19 17:14 | 20.35007 | -51.68579 | 36061 ft | 420 kts | 226° |
| 2026-04-19 17:15 | 20.30712 | -51.72822 | 36067 ft | 420 kts | 226° |
| 2026-04-19 17:15 | 20.26424 | -51.77048 | 36051 ft | 420 kts | 226° |
| 2026-04-19 17:16 | 20.22130 | -51.81277 | 36049 ft | 420 kts | 226° |
| 2026-04-19 17:16 | 20.17837 | -51.85503 | 36059 ft | 421 kts | 226° |
| 2026-04-19 17:17 | 20.13563 | -51.89717 | 36048 ft | 421 kts | 226° |
| 2026-04-19 17:17 | 20.09258 | -51.93946 | 36050 ft | 421 kts | 226° |
| 2026-04-19 17:18 | 20.04980 | -51.98155 | 36057 ft | 421 kts | 226° |
| 2026-04-19 17:18 | 20.00677 | -52.02383 | 36026 ft | 421 kts | 226° |
| 2026-04-19 17:19 | 19.96368 | -52.06603 | 36027 ft | 421 kts | 226° |
| 2026-04-19 17:19 | 19.92061 | -52.10823 | 36015 ft | 421 kts | 226° |
| 2026-04-19 17:20 | 19.87755 | -52.15042 | 35991 ft | 421 kts | 226° |
| 2026-04-19 17:20 | 19.83443 | -52.19264 | 35976 ft | 421 kts | 226° |
| 2026-04-19 17:21 | 19.79158 | -52.23456 | 35979 ft | 422 kts | 226° |
| 2026-04-19 17:21 | 19.74850 | -52.27674 | 35982 ft | 421 kts | 226° |
| 2026-04-19 17:22 | 19.70537 | -52.31873 | 35977 ft | 421 kts | 226° |
| 2026-04-19 17:22 | 19.66220 | -52.36091 | 35981 ft | 421 kts | 226° |
| 2026-04-19 17:23 | 19.61901 | -52.40313 | 35978 ft | 422 kts | 226° |
| 2026-04-19 17:23 | 19.57612 | -52.44488 | 35981 ft | 421 kts | 225° |
| 2026-04-19 17:24 | 19.53291 | -52.48685 | 35980 ft | 422 kts | 225° |
| 2026-04-19 17:24 | 19.48955 | -52.52900 | 35976 ft | 422 kts | 225° |
| 2026-04-19 17:25 | 19.44626 | -52.57110 | 35983 ft | 423 kts | 225° |
| 2026-04-19 17:25 | 19.40277 | -52.61326 | 35980 ft | 423 kts | 225° |
| 2026-04-19 17:26 | 19.35936 | -52.65541 | 35981 ft | 423 kts | 225° |
| 2026-04-19 17:26 | 19.31599 | -52.69755 | 35981 ft | 424 kts | 225° |
| 2026-04-19 17:27 | 19.27249 | -52.73965 | 35979 ft | 424 kts | 225° |
| 2026-04-19 17:27 | 19.22932 | -52.78149 | 35983 ft | 423 kts | 225° |
| 2026-04-19 17:28 | 19.18557 | -52.82385 | 35981 ft | 424 kts | 225° |
| 2026-04-19 17:28 | 19.14219 | -52.86575 | 35994 ft | 424 kts | 225° |
| 2026-04-19 17:29 | 19.09856 | -52.90787 | 35996 ft | 424 kts | 225° |
| 2026-04-19 17:29 | 19.05482 | -52.95012 | 35993 ft | 425 kts | 225° |
| 2026-04-19 17:30 | 19.01131 | -52.99248 | 35979 ft | 425 kts | 227° |
| 2026-04-19 17:30 | 18.97087 | -53.03744 | 35981 ft | 424 kts | 229° |
| 2026-04-19 17:31 | 18.92998 | -53.08251 | 35993 ft | 424 kts | 228° |
| 2026-04-19 17:31 | 18.88944 | -53.12803 | 35986 ft | 425 kts | 229° |
| 2026-04-19 17:32 | 18.84974 | -53.17370 | 35989 ft | 425 kts | 229° |
| 2026-04-19 17:32 | 18.80987 | -53.21968 | 35981 ft | 425 kts | 229° |
| 2026-04-19 17:33 | 18.76988 | -53.26560 | 35969 ft | 425 kts | 229° |
| 2026-04-19 17:33 | 18.72993 | -53.31151 | 35980 ft | 425 kts | 229° |
| 2026-04-19 17:34 | 18.68993 | -53.35760 | 35976 ft | 425 kts | 229° |
| 2026-04-19 17:34 | 18.64983 | -53.40373 | 35982 ft | 426 kts | 229° |
| 2026-04-19 17:35 | 18.60986 | -53.44975 | 35981 ft | 426 kts | 229° |
| 2026-04-19 17:35 | 18.56976 | -53.49573 | 35980 ft | 427 kts | 229° |
| 2026-04-19 17:36 | 18.52958 | -53.54183 | 35985 ft | 426 kts | 229° |
| 2026-04-19 17:36 | 18.48967 | -53.58749 | 35982 ft | 427 kts | 229° |
| 2026-04-19 17:37 | 18.44950 | -53.63353 | 35981 ft | 426 kts | 229° |
| 2026-04-19 17:37 | 18.40924 | -53.67966 | 35982 ft | 427 kts | 229° |
| 2026-04-19 17:38 | 18.36890 | -53.72576 | 35977 ft | 427 kts | 229° |
| 2026-04-19 17:38 | 18.32853 | -53.77173 | 35984 ft | 427 kts | 229° |
| 2026-04-19 17:39 | 18.28830 | -53.81779 | 35977 ft | 427 kts | 229° |
| 2026-04-19 17:39 | 18.24790 | -53.86389 | 35983 ft | 428 kts | 229° |
| 2026-04-19 17:40 | 18.20774 | -53.90972 | 35985 ft | 429 kts | 229° |
| 2026-04-19 17:40 | 18.16729 | -53.95578 | 35976 ft | 428 kts | 228° |
| 2026-04-19 17:41 | 18.12678 | -54.00184 | 35981 ft | 428 kts | 228° |
| 2026-04-19 17:41 | 18.08626 | -54.04790 | 35980 ft | 428 kts | 229° |
| 2026-04-19 17:42 | 18.04609 | -54.09371 | 35981 ft | 428 kts | 228° |
| 2026-04-19 17:42 | 18.00556 | -54.13969 | 35978 ft | 429 kts | 228° |
| 2026-04-19 17:43 | 17.96505 | -54.18568 | 35983 ft | 428 kts | 229° |
| 2026-04-19 17:43 | 17.92460 | -54.23163 | 35986 ft | 429 kts | 228° |
| 2026-04-19 17:44 | 17.88411 | -54.27751 | 35976 ft | 428 kts | 228° |
| 2026-04-19 17:44 | 17.84345 | -54.32343 | 35984 ft | 429 kts | 228° |
| 2026-04-19 17:45 | 17.80285 | -54.36940 | 35979 ft | 429 kts | 228° |
| 2026-04-19 17:45 | 17.76226 | -54.41538 | 35977 ft | 429 kts | 228° |
| 2026-04-19 17:46 | 17.72187 | -54.46105 | 35971 ft | 426 kts | 228° |
| 2026-04-19 17:46 | 17.68169 | -54.50647 | 35980 ft | 426 kts | 228° |
| 2026-04-19 17:47 | 17.64133 | -54.55203 | 35975 ft | 426 kts | 228° |
| 2026-04-19 17:47 | 17.60081 | -54.59762 | 35982 ft | 427 kts | 227° |
| 2026-04-19 17:48 | 17.56060 | -54.64296 | 35983 ft | 427 kts | 228° |
| 2026-04-19 17:48 | 17.52003 | -54.68867 | 35976 ft | 427 kts | 228° |
| 2026-04-19 17:49 | 17.47948 | -54.73423 | 35977 ft | 427 kts | 227° |
| 2026-04-19 17:49 | 17.43915 | -54.77961 | 35981 ft | 428 kts | 227° |
| 2026-04-19 17:50 | 17.39855 | -54.82527 | 35976 ft | 428 kts | 227° |
| 2026-04-19 17:50 | 17.35792 | -54.87089 | 35986 ft | 428 kts | 227° |
| 2026-04-19 17:51 | 17.31730 | -54.91645 | 35982 ft | 428 kts | 227° |
| 2026-04-19 17:51 | 17.27666 | -54.96197 | 35977 ft | 428 kts | 227° |
| 2026-04-19 17:52 | 17.23598 | -55.00761 | 35981 ft | 429 kts | 227° |
| 2026-04-19 17:52 | 17.20215 | -55.04555 | 35989 ft | 429 kts | 227° |
| 2026-04-19 17:53 | 17.16141 | -55.09115 | 35984 ft | 429 kts | 227° |
| 2026-04-19 17:53 | 17.12056 | -55.13685 | 35992 ft | 429 kts | 227° |
| 2026-04-19 17:54 | 17.07974 | -55.18244 | 35986 ft | 430 kts | 227° |
| 2026-04-19 17:54 | 17.03909 | -55.22785 | 35989 ft | 430 kts | 227° |
| 2026-04-19 17:55 | 16.99825 | -55.27345 | 35992 ft | 430 kts | 227° |
| 2026-04-19 17:55 | 16.95732 | -55.31907 | 35984 ft | 430 kts | 227° |
| 2026-04-19 17:56 | 16.91630 | -55.36480 | 35990 ft | 431 kts | 227° |
| 2026-04-19 17:56 | 16.87557 | -55.41020 | 35990 ft | 431 kts | 227° |
| 2026-04-19 17:57 | 16.83451 | -55.45586 | 35983 ft | 432 kts | 227° |
| 2026-04-19 17:57 | 16.79340 | -55.50163 | 35996 ft | 432 kts | 227° |
| 2026-04-19 17:58 | 16.75226 | -55.54744 | 35987 ft | 433 kts | 227° |
| 2026-04-19 17:58 | 16.71100 | -55.59323 | 35989 ft | 433 kts | 227° |
| 2026-04-19 17:59 | 16.66979 | -55.63897 | 35993 ft | 433 kts | 227° |
| 2026-04-19 17:59 | 16.62841 | -55.68488 | 35983 ft | 434 kts | 227° |
| 2026-04-19 18:00 | 16.58730 | -55.73040 | 35989 ft | 435 kts | 227° |
| 2026-04-19 18:00 | 16.54583 | -55.77636 | 35997 ft | 435 kts | 226° |
| 2026-04-19 18:01 | 16.50432 | -55.82232 | 35983 ft | 436 kts | 226° |
| 2026-04-19 18:01 | 16.46272 | -55.86837 | 35985 ft | 436 kts | 226° |
| 2026-04-19 18:02 | 16.42116 | -55.91431 | 35988 ft | 436 kts | 226° |
| 2026-04-19 18:02 | 16.37978 | -55.96006 | 35987 ft | 437 kts | 226° |
| 2026-04-19 18:03 | 16.33804 | -56.00615 | 35983 ft | 437 kts | 226° |
| 2026-04-19 18:03 | 16.29638 | -56.05214 | 35978 ft | 436 kts | 226° |
| 2026-04-19 18:04 | 16.25477 | -56.09802 | 35956 ft | 436 kts | 226° |
| 2026-04-19 18:04 | 16.21308 | -56.14394 | 35954 ft | 435 kts | 226° |
| 2026-04-19 18:05 | 16.17144 | -56.18973 | 35954 ft | 435 kts | 226° |
| 2026-04-19 18:05 | 16.12965 | -56.23579 | 35958 ft | 439 kts | 226° |
| 2026-04-19 18:06 | 16.08794 | -56.28171 | 35953 ft | 440 kts | 226° |
| 2026-04-19 18:06 | 16.04586 | -56.32796 | 35951 ft | 439 kts | 226° |
| 2026-04-19 18:07 | 15.98284 | -56.39720 | 35953 ft | 439 kts | 226° |
| 2026-04-19 18:08 | 15.94112 | -56.44298 | 35953 ft | 438 kts | 226° |
| 2026-04-19 18:08 | 15.89914 | -56.48900 | 35949 ft | 438 kts | 226° |
| 2026-04-19 18:09 | 15.85717 | -56.53499 | 35956 ft | 438 kts | 226° |
| 2026-04-19 18:09 | 15.81523 | -56.58090 | 35950 ft | 438 kts | 226° |
| 2026-04-19 18:10 | 15.77318 | -56.62691 | 35954 ft | 438 kts | 226° |
| 2026-04-19 18:10 | 15.73112 | -56.67287 | 35955 ft | 439 kts | 226° |
| 2026-04-19 18:11 | 15.68931 | -56.71856 | 35949 ft | 439 kts | 226° |
| 2026-04-19 18:11 | 15.64723 | -56.76454 | 35954 ft | 439 kts | 226° |
| 2026-04-19 18:12 | 15.60519 | -56.81041 | 35949 ft | 439 kts | 226° |
| 2026-04-19 18:12 | 15.56311 | -56.85632 | 35962 ft | 438 kts | 226° |
| 2026-04-19 18:13 | 15.52128 | -56.90192 | 35980 ft | 438 kts | 226° |
| 2026-04-19 18:13 | 15.47918 | -56.94777 | 35976 ft | 439 kts | 226° |
| 2026-04-19 18:14 | 15.43709 | -56.99360 | 35981 ft | 438 kts | 226° |
| 2026-04-19 18:14 | 15.39496 | -57.03944 | 35982 ft | 439 kts | 226° |
| 2026-04-19 18:15 | 15.35284 | -57.08525 | 35978 ft | 439 kts | 226° |
| 2026-04-19 18:15 | 15.31069 | -57.13111 | 35983 ft | 439 kts | 226° |
| 2026-04-19 18:16 | 15.26873 | -57.17665 | 35975 ft | 440 kts | 226° |
| 2026-04-19 18:16 | 15.22651 | -57.22245 | 35981 ft | 439 kts | 226° |
| 2026-04-19 18:17 | 15.18426 | -57.26827 | 35975 ft | 440 kts | 226° |
| 2026-04-19 18:17 | 15.14198 | -57.31413 | 35968 ft | 440 kts | 226° |
| 2026-04-19 18:18 | 15.09968 | -57.35996 | 35971 ft | 440 kts | 226° |
| 2026-04-19 18:18 | 15.06192 | -57.40984 | 35979 ft | 442 kts | 234° |
| 2026-04-19 18:19 | 15.02691 | -57.46205 | 35963 ft | 442 kts | 233° |
| 2026-04-19 18:19 | 14.99157 | -57.51357 | 35958 ft | 442 kts | 234° |
| 2026-04-19 18:20 | 14.95706 | -57.56633 | 35970 ft | 443 kts | 234° |
| 2026-04-19 18:20 | 14.92271 | -57.61925 | 35959 ft | 443 kts | 234° |
| 2026-04-19 18:21 | 14.88838 | -57.67221 | 35963 ft | 443 kts | 234° |
| 2026-04-19 18:21 | 14.85404 | -57.72526 | 35962 ft | 444 kts | 234° |
| 2026-04-19 18:22 | 14.81967 | -57.77828 | 35958 ft | 444 kts | 234° |
| 2026-04-19 18:22 | 14.78532 | -57.83138 | 35963 ft | 444 kts | 234° |
| 2026-04-19 18:23 | 14.75113 | -57.88416 | 35965 ft | 444 kts | 234° |
| 2026-04-19 18:23 | 14.71666 | -57.93729 | 35959 ft | 445 kts | 234° |
| 2026-04-19 18:24 | 14.68206 | -57.99054 | 35958 ft | 445 kts | 234° |
| 2026-04-19 18:24 | 14.64756 | -58.04368 | 35964 ft | 445 kts | 234° |
| 2026-04-19 18:25 | 14.61296 | -58.09691 | 35959 ft | 446 kts | 234° |
| 2026-04-19 18:25 | 14.57860 | -58.14973 | 35948 ft | 446 kts | 234° |
| 2026-04-19 18:26 | 14.54387 | -58.20301 | 35942 ft | 447 kts | 234° |
| 2026-04-19 18:26 | 14.50923 | -58.25624 | 35943 ft | 447 kts | 234° |
| 2026-04-19 18:27 | 14.47462 | -58.30949 | 35946 ft | 447 kts | 234° |
| 2026-04-19 18:27 | 14.43988 | -58.36276 | 35940 ft | 447 kts | 234° |
| 2026-04-19 18:28 | 14.40537 | -58.41560 | 35944 ft | 447 kts | 234° |
| 2026-04-19 18:28 | 14.37060 | -58.46886 | 35941 ft | 447 kts | 234° |
| 2026-04-19 18:28 | 14.35348 | -58.49505 | 35922 ft | 429 kts | 234° |
| 2026-04-19 18:29 | 14.33734 | -58.51981 | 35930 ft | 404 kts | 234° |
| 2026-04-19 18:29 | 14.32214 | -58.54321 | 35973 ft | 381 kts | 234° |
| 2026-04-19 18:29 | 14.30778 | -58.56534 | 35938 ft | 362 kts | 234° |
| 2026-04-19 18:29 | 14.29406 | -58.58641 | 35833 ft | 346 kts | 233° |
| 2026-04-19 18:30 | 14.28093 | -58.60650 | 35821 ft | 328 kts | 233° |
| 2026-04-19 18:30 | 14.26846 | -58.62545 | 35860 ft | 310 kts | 233° |
| 2026-04-19 18:30 | 14.25669 | -58.64336 | 35839 ft | 295 kts | 233° |
| 2026-04-19 18:30 | 14.24536 | -58.66065 | 35515 ft | 290 kts | 233° |
| 2026-04-19 18:31 | 14.23411 | -58.67769 | 34881 ft | 294 kts | 233° |
| 2026-04-19 18:31 | 14.22243 | -58.69532 | 34222 ft | 299 kts | 234° |
| 2026-04-19 18:31 | 14.21076 | -58.71304 | 33790 ft | 296 kts | 234° |
| 2026-04-19 18:31 | 14.19940 | -58.73036 | 33576 ft | 287 kts | 234° |
| 2026-04-19 18:32 | 14.18841 | -58.74719 | 33294 ft | 280 kts | 234° |
| 2026-04-19 18:32 | 14.17757 | -58.76381 | 32825 ft | 280 kts | 234° |
| 2026-04-19 18:32 | 14.16664 | -58.78049 | 32290 ft | 281 kts | 235° |
| 2026-04-19 18:32 | 14.15571 | -58.79718 | 31864 ft | 279 kts | 235° |
| 2026-04-19 18:33 | 14.14499 | -58.81361 | 31570 ft | 272 kts | 235° |
| 2026-04-19 18:33 | 14.13451 | -58.82961 | 31255 ft | 267 kts | 235° |
| 2026-04-19 18:33 | 14.12407 | -58.84541 | 30826 ft | 266 kts | 235° |
| 2026-04-19 18:33 | 14.11369 | -58.86121 | 30350 ft | 266 kts | 236° |
| 2026-04-19 18:34 | 14.10354 | -58.87679 | 29941 ft | 264 kts | 236° |
| 2026-04-19 18:34 | 14.09341 | -58.89235 | 29612 ft | 259 kts | 236° |
| 2026-04-19 18:34 | 14.08335 | -58.90761 | 29231 ft | 256 kts | 236° |
| 2026-04-19 18:34 | 14.07325 | -58.92284 | 28727 ft | 258 kts | 236° |
| 2026-04-19 18:35 | 14.06305 | -58.93822 | 28194 ft | 261 kts | 236° |
| 2026-04-19 18:35 | 14.05283 | -58.95368 | 27750 ft | 261 kts | 236° |
| 2026-04-19 18:35 | 14.04271 | -58.96912 | 27356 ft | 259 kts | 237° |
| 2026-04-19 18:35 | 14.03265 | -58.98447 | 26945 ft | 257 kts | 237° |
| 2026-04-19 18:36 | 14.02257 | -58.99973 | 26507 ft | 258 kts | 237° |
| 2026-04-19 18:36 | 14.01260 | -59.01480 | 26050 ft | 258 kts | 237° |
| 2026-04-19 18:36 | 14.00254 | -59.03009 | 25625 ft | 258 kts | 237° |
| 2026-04-19 18:36 | 13.99250 | -59.04541 | 25226 ft | 258 kts | 238° |
| 2026-04-19 18:37 | 13.98251 | -59.06069 | 24801 ft | 257 kts | 238° |
| 2026-04-19 18:37 | 13.97249 | -59.07597 | 24379 ft | 257 kts | 238° |
| 2026-04-19 18:37 | 13.96243 | -59.09115 | 23969 ft | 257 kts | 238° |
| 2026-04-19 18:37 | 13.95239 | -59.10637 | 23550 ft | 256 kts | 238° |
| 2026-04-19 18:38 | 13.94239 | -59.12159 | 23139 ft | 256 kts | 238° |
| 2026-04-19 18:38 | 13.93245 | -59.13676 | 22760 ft | 255 kts | 238° |
| 2026-04-19 18:38 | 13.92256 | -59.15187 | 22408 ft | 253 kts | 238° |
| 2026-04-19 18:38 | 13.91602 | -59.16179 | 22155 ft | 253 kts | 238° |
| 2026-04-19 18:39 | 13.90611 | -59.17671 | 21770 ft | 252 kts | 238° |